<?xml version="1.0" encoding="UTF-8" standalone="no" ?>
<gpx xmlns="http://www.topografix.com/GPX/1/1" xmlns:xsi="http://www.w3.org/2001/XMLSchema-instance" xsi:schemaLocation="http://www.topografix.com/GPX/1/1 http://www.topografix.com/GPX/1/1/gpx.xsd" version="1.1" creator="VisuGPX - https://www.visugpx.com">
  <metadata>
    <name>GR120 d\'Etaples au Touquet</name>
    <desc><![CDATA[sentier littoral]]></desc>
  </metadata>
  <trk>
    <name><![CDATA[2014-09-19-AM]]></name>
    <trkseg>
      <trkpt lat="50.51327" lon="1.63605">
        <ele>8.1</ele>
        <time>2014-09-19T08:45:40Z</time>
      </trkpt>
      <trkpt lat="50.51327" lon="1.63606">
        <ele>8.1</ele>
        <time>2014-09-19T08:45:41Z</time>
      </trkpt>
      <trkpt lat="50.51315" lon="1.63622">
        <ele>7.9</ele>
        <time>2014-09-19T08:45:52Z</time>
      </trkpt>
      <trkpt lat="50.51308" lon="1.63628">
        <ele>7.9</ele>
        <time>2014-09-19T08:45:59Z</time>
      </trkpt>
      <trkpt lat="50.513" lon="1.63624">
        <ele>7.9</ele>
        <time>2014-09-19T08:46:05Z</time>
      </trkpt>
      <trkpt lat="50.51293" lon="1.63616">
        <ele>7.9</ele>
        <time>2014-09-19T08:46:11Z</time>
      </trkpt>
      <trkpt lat="50.51287" lon="1.63606">
        <ele>7.9</ele>
        <time>2014-09-19T08:46:17Z</time>
      </trkpt>
      <trkpt lat="50.51282" lon="1.63597">
        <ele>8</ele>
        <time>2014-09-19T08:46:23Z</time>
      </trkpt>
      <trkpt lat="50.51276" lon="1.63587">
        <ele>8</ele>
        <time>2014-09-19T08:46:30Z</time>
      </trkpt>
      <trkpt lat="50.51271" lon="1.63577">
        <ele>8.1</ele>
        <time>2014-09-19T08:46:36Z</time>
      </trkpt>
      <trkpt lat="50.51265" lon="1.63568">
        <ele>8</ele>
        <time>2014-09-19T08:46:42Z</time>
      </trkpt>
      <trkpt lat="50.51264" lon="1.63567">
        <ele>7.9</ele>
        <time>2014-09-19T08:46:43Z</time>
      </trkpt>
      <trkpt lat="50.51253" lon="1.63549">
        <ele>7.3</ele>
        <time>2014-09-19T08:47:08Z</time>
      </trkpt>
      <trkpt lat="50.51247" lon="1.63541">
        <ele>7.4</ele>
        <time>2014-09-19T08:47:16Z</time>
      </trkpt>
      <trkpt lat="50.51242" lon="1.63532">
        <ele>7.5</ele>
        <time>2014-09-19T08:47:22Z</time>
      </trkpt>
      <trkpt lat="50.51236" lon="1.63523">
        <ele>7.5</ele>
        <time>2014-09-19T08:47:28Z</time>
      </trkpt>
      <trkpt lat="50.5123" lon="1.63513">
        <ele>7.7</ele>
        <time>2014-09-19T08:47:34Z</time>
      </trkpt>
      <trkpt lat="50.51224" lon="1.63504">
        <ele>7.8</ele>
        <time>2014-09-19T08:47:40Z</time>
      </trkpt>
      <trkpt lat="50.51219" lon="1.63495">
        <ele>7.9</ele>
        <time>2014-09-19T08:47:46Z</time>
      </trkpt>
      <trkpt lat="50.51218" lon="1.63493">
        <ele>7.9</ele>
        <time>2014-09-19T08:47:47Z</time>
      </trkpt>
      <trkpt lat="50.51206" lon="1.63475">
        <ele>8.1</ele>
        <time>2014-09-19T08:47:58Z</time>
      </trkpt>
      <trkpt lat="50.512" lon="1.63465">
        <ele>8.2</ele>
        <time>2014-09-19T08:48:04Z</time>
      </trkpt>
      <trkpt lat="50.51195" lon="1.63456">
        <ele>8.3</ele>
        <time>2014-09-19T08:48:10Z</time>
      </trkpt>
      <trkpt lat="50.51189" lon="1.63446">
        <ele>8.3</ele>
        <time>2014-09-19T08:48:17Z</time>
      </trkpt>
      <trkpt lat="50.51183" lon="1.63437">
        <ele>8.3</ele>
        <time>2014-09-19T08:48:24Z</time>
      </trkpt>
      <trkpt lat="50.5118" lon="1.63423">
        <ele>8.2</ele>
        <time>2014-09-19T08:48:33Z</time>
      </trkpt>
      <trkpt lat="50.51185" lon="1.63413">
        <ele>7.8</ele>
        <time>2014-09-19T08:48:58Z</time>
      </trkpt>
      <trkpt lat="50.51185" lon="1.63411">
        <ele>7.9</ele>
        <time>2014-09-19T08:48:59Z</time>
      </trkpt>
      <trkpt lat="50.51194" lon="1.63392">
        <ele>8</ele>
        <time>2014-09-19T08:49:09Z</time>
      </trkpt>
      <trkpt lat="50.51199" lon="1.63382">
        <ele>8</ele>
        <time>2014-09-19T08:49:15Z</time>
      </trkpt>
      <trkpt lat="50.51204" lon="1.63371">
        <ele>8</ele>
        <time>2014-09-19T08:49:21Z</time>
      </trkpt>
      <trkpt lat="50.5121" lon="1.63362">
        <ele>7.9</ele>
        <time>2014-09-19T08:49:27Z</time>
      </trkpt>
      <trkpt lat="50.51216" lon="1.63353">
        <ele>7.8</ele>
        <time>2014-09-19T08:49:33Z</time>
      </trkpt>
      <trkpt lat="50.51222" lon="1.63345">
        <ele>7.8</ele>
        <time>2014-09-19T08:49:38Z</time>
      </trkpt>
      <trkpt lat="50.51228" lon="1.63335">
        <ele>7.8</ele>
        <time>2014-09-19T08:49:44Z</time>
      </trkpt>
      <trkpt lat="50.51233" lon="1.63325">
        <ele>7.7</ele>
        <time>2014-09-19T08:49:50Z</time>
      </trkpt>
      <trkpt lat="50.51239" lon="1.63315">
        <ele>7.6</ele>
        <time>2014-09-19T08:49:56Z</time>
      </trkpt>
      <trkpt lat="50.51244" lon="1.63305">
        <ele>7.6</ele>
        <time>2014-09-19T08:50:02Z</time>
      </trkpt>
      <trkpt lat="50.51245" lon="1.63303">
        <ele>7.6</ele>
        <time>2014-09-19T08:50:03Z</time>
      </trkpt>
      <trkpt lat="50.51255" lon="1.63285">
        <ele>7.5</ele>
        <time>2014-09-19T08:50:14Z</time>
      </trkpt>
      <trkpt lat="50.5126" lon="1.63275">
        <ele>7.4</ele>
        <time>2014-09-19T08:50:20Z</time>
      </trkpt>
      <trkpt lat="50.51265" lon="1.63265">
        <ele>7.3</ele>
        <time>2014-09-19T08:50:26Z</time>
      </trkpt>
      <trkpt lat="50.5127" lon="1.63257">
        <ele>7.2</ele>
        <time>2014-09-19T08:50:32Z</time>
      </trkpt>
      <trkpt lat="50.51276" lon="1.63248">
        <ele>7</ele>
        <time>2014-09-19T08:50:38Z</time>
      </trkpt>
      <trkpt lat="50.51282" lon="1.6324">
        <ele>6.8</ele>
        <time>2014-09-19T08:50:44Z</time>
      </trkpt>
      <trkpt lat="50.51289" lon="1.63232">
        <ele>6.6</ele>
        <time>2014-09-19T08:50:50Z</time>
      </trkpt>
      <trkpt lat="50.51295" lon="1.63223">
        <ele>6.4</ele>
        <time>2014-09-19T08:50:56Z</time>
      </trkpt>
      <trkpt lat="50.51301" lon="1.63214">
        <ele>6.3</ele>
        <time>2014-09-19T08:51:02Z</time>
      </trkpt>
      <trkpt lat="50.51307" lon="1.63205">
        <ele>6.2</ele>
        <time>2014-09-19T08:51:08Z</time>
      </trkpt>
      <trkpt lat="50.51308" lon="1.63203">
        <ele>6.2</ele>
        <time>2014-09-19T08:51:09Z</time>
      </trkpt>
      <trkpt lat="50.51319" lon="1.63186">
        <ele>5.9</ele>
        <time>2014-09-19T08:51:20Z</time>
      </trkpt>
      <trkpt lat="50.51325" lon="1.63177">
        <ele>5.7</ele>
        <time>2014-09-19T08:51:26Z</time>
      </trkpt>
      <trkpt lat="50.51331" lon="1.63168">
        <ele>5.6</ele>
        <time>2014-09-19T08:51:32Z</time>
      </trkpt>
      <trkpt lat="50.51337" lon="1.63159">
        <ele>5.5</ele>
        <time>2014-09-19T08:51:38Z</time>
      </trkpt>
      <trkpt lat="50.51343" lon="1.6315">
        <ele>5.3</ele>
        <time>2014-09-19T08:51:44Z</time>
      </trkpt>
      <trkpt lat="50.51348" lon="1.6314">
        <ele>5.2</ele>
        <time>2014-09-19T08:51:50Z</time>
      </trkpt>
      <trkpt lat="50.51354" lon="1.63131">
        <ele>6</ele>
        <time>2014-09-19T08:51:56Z</time>
      </trkpt>
      <trkpt lat="50.51359" lon="1.63121">
        <ele>5.9</ele>
        <time>2014-09-19T08:52:02Z</time>
      </trkpt>
      <trkpt lat="50.51364" lon="1.63111">
        <ele>6</ele>
        <time>2014-09-19T08:52:08Z</time>
      </trkpt>
      <trkpt lat="50.5137" lon="1.63103">
        <ele>5.3</ele>
        <time>2014-09-19T08:52:14Z</time>
      </trkpt>
      <trkpt lat="50.51371" lon="1.63101">
        <ele>5.1</ele>
        <time>2014-09-19T08:52:15Z</time>
      </trkpt>
      <trkpt lat="50.51382" lon="1.63086">
        <ele>5.5</ele>
        <time>2014-09-19T08:52:26Z</time>
      </trkpt>
      <trkpt lat="50.51387" lon="1.63076">
        <ele>6.2</ele>
        <time>2014-09-19T08:52:32Z</time>
      </trkpt>
      <trkpt lat="50.51393" lon="1.63067">
        <ele>6.1</ele>
        <time>2014-09-19T08:52:38Z</time>
      </trkpt>
      <trkpt lat="50.51398" lon="1.63057">
        <ele>6.3</ele>
        <time>2014-09-19T08:52:44Z</time>
      </trkpt>
      <trkpt lat="50.51403" lon="1.63046">
        <ele>5.5</ele>
        <time>2014-09-19T08:52:50Z</time>
      </trkpt>
      <trkpt lat="50.51408" lon="1.63036">
        <ele>5.9</ele>
        <time>2014-09-19T08:52:56Z</time>
      </trkpt>
      <trkpt lat="50.51415" lon="1.63028">
        <ele>6.1</ele>
        <time>2014-09-19T08:53:02Z</time>
      </trkpt>
      <trkpt lat="50.51422" lon="1.6302">
        <ele>5.5</ele>
        <time>2014-09-19T08:53:08Z</time>
      </trkpt>
      <trkpt lat="50.51428" lon="1.63011">
        <ele>5.7</ele>
        <time>2014-09-19T08:53:14Z</time>
      </trkpt>
      <trkpt lat="50.51433" lon="1.63001">
        <ele>5.8</ele>
        <time>2014-09-19T08:53:20Z</time>
      </trkpt>
      <trkpt lat="50.51434" lon="1.62999">
        <ele>5.9</ele>
        <time>2014-09-19T08:53:21Z</time>
      </trkpt>
      <trkpt lat="50.51444" lon="1.62982">
        <ele>5.8</ele>
        <time>2014-09-19T08:53:32Z</time>
      </trkpt>
      <trkpt lat="50.5145" lon="1.62973">
        <ele>5.5</ele>
        <time>2014-09-19T08:53:38Z</time>
      </trkpt>
      <trkpt lat="50.51455" lon="1.62962">
        <ele>5.4</ele>
        <time>2014-09-19T08:53:44Z</time>
      </trkpt>
      <trkpt lat="50.5146" lon="1.62953">
        <ele>5.7</ele>
        <time>2014-09-19T08:53:50Z</time>
      </trkpt>
      <trkpt lat="50.51465" lon="1.62942">
        <ele>6.2</ele>
        <time>2014-09-19T08:53:56Z</time>
      </trkpt>
      <trkpt lat="50.51472" lon="1.62933">
        <ele>5.8</ele>
        <time>2014-09-19T08:54:02Z</time>
      </trkpt>
      <trkpt lat="50.51478" lon="1.62925">
        <ele>5.7</ele>
        <time>2014-09-19T08:54:08Z</time>
      </trkpt>
      <trkpt lat="50.51484" lon="1.62916">
        <ele>5.8</ele>
        <time>2014-09-19T08:54:14Z</time>
      </trkpt>
      <trkpt lat="50.5149" lon="1.62907">
        <ele>6.3</ele>
        <time>2014-09-19T08:54:20Z</time>
      </trkpt>
      <trkpt lat="50.51496" lon="1.62899">
        <ele>5.6</ele>
        <time>2014-09-19T08:54:26Z</time>
      </trkpt>
      <trkpt lat="50.51497" lon="1.62897">
        <ele>5.5</ele>
        <time>2014-09-19T08:54:27Z</time>
      </trkpt>
      <trkpt lat="50.51508" lon="1.6288">
        <ele>5.7</ele>
        <time>2014-09-19T08:54:38Z</time>
      </trkpt>
      <trkpt lat="50.51514" lon="1.62872">
        <ele>5.4</ele>
        <time>2014-09-19T08:54:44Z</time>
      </trkpt>
      <trkpt lat="50.5152" lon="1.62862">
        <ele>6</ele>
        <time>2014-09-19T08:54:50Z</time>
      </trkpt>
      <trkpt lat="50.51525" lon="1.62853">
        <ele>6.5</ele>
        <time>2014-09-19T08:54:56Z</time>
      </trkpt>
      <trkpt lat="50.5153" lon="1.62843">
        <ele>6.2</ele>
        <time>2014-09-19T08:55:02Z</time>
      </trkpt>
      <trkpt lat="50.51536" lon="1.62834">
        <ele>5.6</ele>
        <time>2014-09-19T08:55:08Z</time>
      </trkpt>
      <trkpt lat="50.51542" lon="1.62825">
        <ele>5.7</ele>
        <time>2014-09-19T08:55:14Z</time>
      </trkpt>
      <trkpt lat="50.51548" lon="1.62816">
        <ele>5.6</ele>
        <time>2014-09-19T08:55:20Z</time>
      </trkpt>
      <trkpt lat="50.51554" lon="1.62807">
        <ele>6.2</ele>
        <time>2014-09-19T08:55:26Z</time>
      </trkpt>
      <trkpt lat="50.5156" lon="1.62799">
        <ele>5.3</ele>
        <time>2014-09-19T08:55:32Z</time>
      </trkpt>
      <trkpt lat="50.51561" lon="1.62798">
        <ele>5.3</ele>
        <time>2014-09-19T08:55:33Z</time>
      </trkpt>
      <trkpt lat="50.51572" lon="1.62782">
        <ele>4.7</ele>
        <time>2014-09-19T08:55:44Z</time>
      </trkpt>
      <trkpt lat="50.51578" lon="1.62775">
        <ele>4.9</ele>
        <time>2014-09-19T08:55:50Z</time>
      </trkpt>
      <trkpt lat="50.51583" lon="1.62765">
        <ele>4.9</ele>
        <time>2014-09-19T08:55:56Z</time>
      </trkpt>
      <trkpt lat="50.51587" lon="1.62754">
        <ele>4.7</ele>
        <time>2014-09-19T08:56:02Z</time>
      </trkpt>
      <trkpt lat="50.51589" lon="1.62742">
        <ele>5.4</ele>
        <time>2014-09-19T08:56:10Z</time>
      </trkpt>
      <trkpt lat="50.51595" lon="1.62732">
        <ele>6.5</ele>
        <time>2014-09-19T08:56:17Z</time>
      </trkpt>
      <trkpt lat="50.51601" lon="1.62722">
        <ele>5.9</ele>
        <time>2014-09-19T08:56:24Z</time>
      </trkpt>
      <trkpt lat="50.51604" lon="1.62709">
        <ele>7.2</ele>
        <time>2014-09-19T08:56:34Z</time>
      </trkpt>
      <trkpt lat="50.51604" lon="1.62708">
        <ele>7.1</ele>
        <time>2014-09-19T08:56:35Z</time>
      </trkpt>
      <trkpt lat="50.51616" lon="1.62688">
        <ele>7</ele>
        <time>2014-09-19T08:56:49Z</time>
      </trkpt>
      <trkpt lat="50.51622" lon="1.62679">
        <ele>6.4</ele>
        <time>2014-09-19T08:56:56Z</time>
      </trkpt>
      <trkpt lat="50.51628" lon="1.62669">
        <ele>6.8</ele>
        <time>2014-09-19T08:57:03Z</time>
      </trkpt>
      <trkpt lat="50.51634" lon="1.62659">
        <ele>7.4</ele>
        <time>2014-09-19T08:57:10Z</time>
      </trkpt>
      <trkpt lat="50.5164" lon="1.62649">
        <ele>6.6</ele>
        <time>2014-09-19T08:57:17Z</time>
      </trkpt>
      <trkpt lat="50.51646" lon="1.62639">
        <ele>7.1</ele>
        <time>2014-09-19T08:57:24Z</time>
      </trkpt>
      <trkpt lat="50.51651" lon="1.6263">
        <ele>7</ele>
        <time>2014-09-19T08:57:30Z</time>
      </trkpt>
      <trkpt lat="50.51657" lon="1.6262">
        <ele>7</ele>
        <time>2014-09-19T08:57:37Z</time>
      </trkpt>
      <trkpt lat="50.51658" lon="1.62618">
        <ele>6.7</ele>
        <time>2014-09-19T08:57:38Z</time>
      </trkpt>
      <trkpt lat="50.51669" lon="1.626">
        <ele>6.8</ele>
        <time>2014-09-19T08:57:51Z</time>
      </trkpt>
      <trkpt lat="50.51675" lon="1.6259">
        <ele>6.9</ele>
        <time>2014-09-19T08:57:58Z</time>
      </trkpt>
      <trkpt lat="50.51681" lon="1.6258">
        <ele>6.9</ele>
        <time>2014-09-19T08:58:05Z</time>
      </trkpt>
      <trkpt lat="50.51687" lon="1.6257">
        <ele>6.7</ele>
        <time>2014-09-19T08:58:12Z</time>
      </trkpt>
      <trkpt lat="50.51694" lon="1.6256">
        <ele>7.2</ele>
        <time>2014-09-19T08:58:19Z</time>
      </trkpt>
      <trkpt lat="50.51699" lon="1.6255">
        <ele>6.6</ele>
        <time>2014-09-19T08:58:26Z</time>
      </trkpt>
      <trkpt lat="50.51705" lon="1.62539">
        <ele>6.8</ele>
        <time>2014-09-19T08:58:33Z</time>
      </trkpt>
      <trkpt lat="50.51711" lon="1.6253">
        <ele>6.9</ele>
        <time>2014-09-19T08:58:40Z</time>
      </trkpt>
      <trkpt lat="50.51712" lon="1.62529">
        <ele>6.7</ele>
        <time>2014-09-19T08:58:41Z</time>
      </trkpt>
      <trkpt lat="50.51723" lon="1.6251">
        <ele>6.2</ele>
        <time>2014-09-19T08:58:54Z</time>
      </trkpt>
      <trkpt lat="50.51729" lon="1.625">
        <ele>6.8</ele>
        <time>2014-09-19T08:59:01Z</time>
      </trkpt>
      <trkpt lat="50.51736" lon="1.6249">
        <ele>6.9</ele>
        <time>2014-09-19T08:59:08Z</time>
      </trkpt>
      <trkpt lat="50.51742" lon="1.6248">
        <ele>6.7</ele>
        <time>2014-09-19T08:59:15Z</time>
      </trkpt>
      <trkpt lat="50.51748" lon="1.62471">
        <ele>6.4</ele>
        <time>2014-09-19T08:59:22Z</time>
      </trkpt>
      <trkpt lat="50.51753" lon="1.6246">
        <ele>6.8</ele>
        <time>2014-09-19T08:59:29Z</time>
      </trkpt>
      <trkpt lat="50.51759" lon="1.6245">
        <ele>5.9</ele>
        <time>2014-09-19T08:59:36Z</time>
      </trkpt>
      <trkpt lat="50.51765" lon="1.6244">
        <ele>6.6</ele>
        <time>2014-09-19T08:59:43Z</time>
      </trkpt>
      <trkpt lat="50.51766" lon="1.62438">
        <ele>6.7</ele>
        <time>2014-09-19T08:59:44Z</time>
      </trkpt>
      <trkpt lat="50.51777" lon="1.62422">
        <ele>6.6</ele>
        <time>2014-09-19T08:59:57Z</time>
      </trkpt>
      <trkpt lat="50.51784" lon="1.62414">
        <ele>5.7</ele>
        <time>2014-09-19T09:00:04Z</time>
      </trkpt>
      <trkpt lat="50.51789" lon="1.62403">
        <ele>6.1</ele>
        <time>2014-09-19T09:00:11Z</time>
      </trkpt>
      <trkpt lat="50.51795" lon="1.62393">
        <ele>6.8</ele>
        <time>2014-09-19T09:00:19Z</time>
      </trkpt>
      <trkpt lat="50.51801" lon="1.62384">
        <ele>6.1</ele>
        <time>2014-09-19T09:00:26Z</time>
      </trkpt>
      <trkpt lat="50.51807" lon="1.62373">
        <ele>6.4</ele>
        <time>2014-09-19T09:00:33Z</time>
      </trkpt>
      <trkpt lat="50.51812" lon="1.62364">
        <ele>6.2</ele>
        <time>2014-09-19T09:00:39Z</time>
      </trkpt>
      <trkpt lat="50.51818" lon="1.62355">
        <ele>6.5</ele>
        <time>2014-09-19T09:00:45Z</time>
      </trkpt>
      <trkpt lat="50.51818" lon="1.62354">
        <ele>6.6</ele>
        <time>2014-09-19T09:00:46Z</time>
      </trkpt>
      <trkpt lat="50.51829" lon="1.62335">
        <ele>6.3</ele>
        <time>2014-09-19T09:00:59Z</time>
      </trkpt>
      <trkpt lat="50.51835" lon="1.62326">
        <ele>6</ele>
        <time>2014-09-19T09:01:05Z</time>
      </trkpt>
      <trkpt lat="50.5184" lon="1.62316">
        <ele>5.5</ele>
        <time>2014-09-19T09:01:11Z</time>
      </trkpt>
      <trkpt lat="50.51845" lon="1.62306">
        <ele>5.9</ele>
        <time>2014-09-19T09:01:18Z</time>
      </trkpt>
      <trkpt lat="50.51851" lon="1.62296">
        <ele>6.6</ele>
        <time>2014-09-19T09:01:25Z</time>
      </trkpt>
      <trkpt lat="50.51857" lon="1.62286">
        <ele>6.5</ele>
        <time>2014-09-19T09:01:32Z</time>
      </trkpt>
      <trkpt lat="50.51864" lon="1.62276">
        <ele>6.8</ele>
        <time>2014-09-19T09:01:39Z</time>
      </trkpt>
      <trkpt lat="50.51869" lon="1.62267">
        <ele>7.2</ele>
        <time>2014-09-19T09:01:45Z</time>
      </trkpt>
      <trkpt lat="50.51875" lon="1.62257">
        <ele>6.1</ele>
        <time>2014-09-19T09:01:52Z</time>
      </trkpt>
      <trkpt lat="50.51876" lon="1.62255">
        <ele>6.1</ele>
        <time>2014-09-19T09:01:53Z</time>
      </trkpt>
      <trkpt lat="50.51886" lon="1.62237">
        <ele>6.8</ele>
        <time>2014-09-19T09:02:05Z</time>
      </trkpt>
      <trkpt lat="50.51892" lon="1.62227">
        <ele>6.3</ele>
        <time>2014-09-19T09:02:12Z</time>
      </trkpt>
      <trkpt lat="50.51898" lon="1.62218">
        <ele>6.6</ele>
        <time>2014-09-19T09:02:20Z</time>
      </trkpt>
      <trkpt lat="50.51905" lon="1.6221">
        <ele>6.5</ele>
        <time>2014-09-19T09:02:27Z</time>
      </trkpt>
      <trkpt lat="50.5191" lon="1.622">
        <ele>5.7</ele>
        <time>2014-09-19T09:02:34Z</time>
      </trkpt>
      <trkpt lat="50.51915" lon="1.62191">
        <ele>5.7</ele>
        <time>2014-09-19T09:02:41Z</time>
      </trkpt>
      <trkpt lat="50.51921" lon="1.62182">
        <ele>5.7</ele>
        <time>2014-09-19T09:02:48Z</time>
      </trkpt>
      <trkpt lat="50.51926" lon="1.62171">
        <ele>6</ele>
        <time>2014-09-19T09:02:55Z</time>
      </trkpt>
      <trkpt lat="50.51927" lon="1.6217">
        <ele>6.3</ele>
        <time>2014-09-19T09:02:56Z</time>
      </trkpt>
      <trkpt lat="50.5194" lon="1.62155">
        <ele>6.3</ele>
        <time>2014-09-19T09:03:09Z</time>
      </trkpt>
      <trkpt lat="50.51947" lon="1.62149">
        <ele>6.1</ele>
        <time>2014-09-19T09:03:15Z</time>
      </trkpt>
      <trkpt lat="50.51954" lon="1.62143">
        <ele>6.3</ele>
        <time>2014-09-19T09:03:22Z</time>
      </trkpt>
      <trkpt lat="50.51962" lon="1.62135">
        <ele>6.4</ele>
        <time>2014-09-19T09:03:29Z</time>
      </trkpt>
      <trkpt lat="50.51968" lon="1.62126">
        <ele>6.7</ele>
        <time>2014-09-19T09:03:36Z</time>
      </trkpt>
      <trkpt lat="50.51975" lon="1.62116">
        <ele>6.2</ele>
        <time>2014-09-19T09:03:43Z</time>
      </trkpt>
      <trkpt lat="50.51981" lon="1.62106">
        <ele>6.1</ele>
        <time>2014-09-19T09:03:50Z</time>
      </trkpt>
      <trkpt lat="50.51987" lon="1.62096">
        <ele>6.5</ele>
        <time>2014-09-19T09:03:57Z</time>
      </trkpt>
      <trkpt lat="50.51988" lon="1.62095">
        <ele>6.6</ele>
        <time>2014-09-19T09:03:58Z</time>
      </trkpt>
      <trkpt lat="50.51998" lon="1.62077">
        <ele>6.2</ele>
        <time>2014-09-19T09:04:10Z</time>
      </trkpt>
      <trkpt lat="50.52004" lon="1.62069">
        <ele>5.9</ele>
        <time>2014-09-19T09:04:16Z</time>
      </trkpt>
      <trkpt lat="50.52009" lon="1.6206">
        <ele>6.3</ele>
        <time>2014-09-19T09:04:22Z</time>
      </trkpt>
      <trkpt lat="50.52015" lon="1.62052">
        <ele>5.9</ele>
        <time>2014-09-19T09:04:28Z</time>
      </trkpt>
      <trkpt lat="50.5202" lon="1.62043">
        <ele>6.1</ele>
        <time>2014-09-19T09:04:34Z</time>
      </trkpt>
      <trkpt lat="50.52025" lon="1.62034">
        <ele>6.1</ele>
        <time>2014-09-19T09:04:40Z</time>
      </trkpt>
      <trkpt lat="50.5203" lon="1.62024">
        <ele>5.9</ele>
        <time>2014-09-19T09:04:46Z</time>
      </trkpt>
      <trkpt lat="50.52035" lon="1.62015">
        <ele>6.1</ele>
        <time>2014-09-19T09:04:52Z</time>
      </trkpt>
      <trkpt lat="50.52041" lon="1.62006">
        <ele>6.3</ele>
        <time>2014-09-19T09:04:58Z</time>
      </trkpt>
      <trkpt lat="50.52042" lon="1.62004">
        <ele>6.3</ele>
        <time>2014-09-19T09:04:59Z</time>
      </trkpt>
      <trkpt lat="50.52052" lon="1.61988">
        <ele>6.5</ele>
        <time>2014-09-19T09:05:10Z</time>
      </trkpt>
      <trkpt lat="50.52057" lon="1.61979">
        <ele>6.7</ele>
        <time>2014-09-19T09:05:16Z</time>
      </trkpt>
      <trkpt lat="50.52062" lon="1.6197">
        <ele>7.2</ele>
        <time>2014-09-19T09:05:22Z</time>
      </trkpt>
      <trkpt lat="50.52068" lon="1.61961">
        <ele>7</ele>
        <time>2014-09-19T09:05:28Z</time>
      </trkpt>
      <trkpt lat="50.52073" lon="1.61951">
        <ele>6.6</ele>
        <time>2014-09-19T09:05:35Z</time>
      </trkpt>
      <trkpt lat="50.52079" lon="1.61941">
        <ele>6.3</ele>
        <time>2014-09-19T09:05:42Z</time>
      </trkpt>
      <trkpt lat="50.52085" lon="1.61932">
        <ele>6.4</ele>
        <time>2014-09-19T09:05:48Z</time>
      </trkpt>
      <trkpt lat="50.52091" lon="1.61924">
        <ele>6.4</ele>
        <time>2014-09-19T09:05:54Z</time>
      </trkpt>
      <trkpt lat="50.52097" lon="1.61914">
        <ele>6.8</ele>
        <time>2014-09-19T09:06:01Z</time>
      </trkpt>
      <trkpt lat="50.52098" lon="1.61912">
        <ele>6.7</ele>
        <time>2014-09-19T09:06:02Z</time>
      </trkpt>
      <trkpt lat="50.52108" lon="1.61892">
        <ele>6.5</ele>
        <time>2014-09-19T09:06:15Z</time>
      </trkpt>
      <trkpt lat="50.52113" lon="1.61881">
        <ele>6.9</ele>
        <time>2014-09-19T09:06:22Z</time>
      </trkpt>
      <trkpt lat="50.52119" lon="1.61872">
        <ele>6.6</ele>
        <time>2014-09-19T09:06:29Z</time>
      </trkpt>
      <trkpt lat="50.52125" lon="1.61862">
        <ele>6.2</ele>
        <time>2014-09-19T09:06:36Z</time>
      </trkpt>
      <trkpt lat="50.52131" lon="1.61853">
        <ele>6.6</ele>
        <time>2014-09-19T09:06:43Z</time>
      </trkpt>
      <trkpt lat="50.52137" lon="1.61843">
        <ele>6.4</ele>
        <time>2014-09-19T09:06:50Z</time>
      </trkpt>
      <trkpt lat="50.52144" lon="1.61834">
        <ele>6.9</ele>
        <time>2014-09-19T09:06:57Z</time>
      </trkpt>
      <trkpt lat="50.5215" lon="1.61824">
        <ele>6</ele>
        <time>2014-09-19T09:07:04Z</time>
      </trkpt>
      <trkpt lat="50.52151" lon="1.61823">
        <ele>6</ele>
        <time>2014-09-19T09:07:05Z</time>
      </trkpt>
      <trkpt lat="50.52162" lon="1.61807">
        <ele>6.5</ele>
        <time>2014-09-19T09:07:36Z</time>
      </trkpt>
      <trkpt lat="50.52169" lon="1.61798">
        <ele>5.8</ele>
        <time>2014-09-19T09:07:43Z</time>
      </trkpt>
      <trkpt lat="50.52174" lon="1.61789">
        <ele>6.3</ele>
        <time>2014-09-19T09:07:49Z</time>
      </trkpt>
      <trkpt lat="50.5218" lon="1.61779">
        <ele>5.9</ele>
        <time>2014-09-19T09:07:56Z</time>
      </trkpt>
      <trkpt lat="50.52186" lon="1.61771">
        <ele>6.7</ele>
        <time>2014-09-19T09:08:02Z</time>
      </trkpt>
      <trkpt lat="50.52192" lon="1.61763">
        <ele>6.6</ele>
        <time>2014-09-19T09:08:08Z</time>
      </trkpt>
      <trkpt lat="50.52193" lon="1.61762">
        <ele>6.7</ele>
        <time>2014-09-19T09:08:09Z</time>
      </trkpt>
      <trkpt lat="50.52204" lon="1.61744">
        <ele>6.3</ele>
        <time>2014-09-19T09:08:21Z</time>
      </trkpt>
      <trkpt lat="50.5221" lon="1.61734">
        <ele>7.1</ele>
        <time>2014-09-19T09:08:28Z</time>
      </trkpt>
      <trkpt lat="50.52215" lon="1.61724">
        <ele>7</ele>
        <time>2014-09-19T09:08:34Z</time>
      </trkpt>
      <trkpt lat="50.52221" lon="1.61715">
        <ele>7.4</ele>
        <time>2014-09-19T09:08:40Z</time>
      </trkpt>
      <trkpt lat="50.52226" lon="1.61706">
        <ele>6.8</ele>
        <time>2014-09-19T09:08:46Z</time>
      </trkpt>
      <trkpt lat="50.52232" lon="1.61697">
        <ele>7.3</ele>
        <time>2014-09-19T09:08:52Z</time>
      </trkpt>
      <trkpt lat="50.52237" lon="1.61688">
        <ele>7</ele>
        <time>2014-09-19T09:08:58Z</time>
      </trkpt>
      <trkpt lat="50.52243" lon="1.6168">
        <ele>7</ele>
        <time>2014-09-19T09:09:04Z</time>
      </trkpt>
      <trkpt lat="50.52249" lon="1.61669">
        <ele>6.6</ele>
        <time>2014-09-19T09:09:11Z</time>
      </trkpt>
      <trkpt lat="50.5225" lon="1.61668">
        <ele>6.5</ele>
        <time>2014-09-19T09:09:12Z</time>
      </trkpt>
      <trkpt lat="50.52261" lon="1.61651">
        <ele>6.6</ele>
        <time>2014-09-19T09:09:24Z</time>
      </trkpt>
      <trkpt lat="50.52266" lon="1.61642">
        <ele>6.7</ele>
        <time>2014-09-19T09:09:30Z</time>
      </trkpt>
      <trkpt lat="50.52272" lon="1.61632">
        <ele>6.6</ele>
        <time>2014-09-19T09:09:37Z</time>
      </trkpt>
      <trkpt lat="50.52278" lon="1.61622">
        <ele>6.8</ele>
        <time>2014-09-19T09:09:44Z</time>
      </trkpt>
      <trkpt lat="50.52284" lon="1.61612">
        <ele>6.7</ele>
        <time>2014-09-19T09:09:51Z</time>
      </trkpt>
      <trkpt lat="50.52289" lon="1.61602">
        <ele>6.9</ele>
        <time>2014-09-19T09:09:57Z</time>
      </trkpt>
      <trkpt lat="50.52294" lon="1.61592">
        <ele>6.9</ele>
        <time>2014-09-19T09:10:04Z</time>
      </trkpt>
      <trkpt lat="50.523" lon="1.61582">
        <ele>6.9</ele>
        <time>2014-09-19T09:10:11Z</time>
      </trkpt>
      <trkpt lat="50.52306" lon="1.61573">
        <ele>7.4</ele>
        <time>2014-09-19T09:10:18Z</time>
      </trkpt>
      <trkpt lat="50.52307" lon="1.61571">
        <ele>7.3</ele>
        <time>2014-09-19T09:10:19Z</time>
      </trkpt>
      <trkpt lat="50.52318" lon="1.61553">
        <ele>6.7</ele>
        <time>2014-09-19T09:10:32Z</time>
      </trkpt>
      <trkpt lat="50.52325" lon="1.61543">
        <ele>6.2</ele>
        <time>2014-09-19T09:10:39Z</time>
      </trkpt>
      <trkpt lat="50.5233" lon="1.61532">
        <ele>6.5</ele>
        <time>2014-09-19T09:10:46Z</time>
      </trkpt>
      <trkpt lat="50.52336" lon="1.61523">
        <ele>7.3</ele>
        <time>2014-09-19T09:10:53Z</time>
      </trkpt>
      <trkpt lat="50.52342" lon="1.61513">
        <ele>6.8</ele>
        <time>2014-09-19T09:11:00Z</time>
      </trkpt>
      <trkpt lat="50.52348" lon="1.61503">
        <ele>6.9</ele>
        <time>2014-09-19T09:11:07Z</time>
      </trkpt>
      <trkpt lat="50.52354" lon="1.61494">
        <ele>6.9</ele>
        <time>2014-09-19T09:11:14Z</time>
      </trkpt>
      <trkpt lat="50.5236" lon="1.61484">
        <ele>6.9</ele>
        <time>2014-09-19T09:11:21Z</time>
      </trkpt>
      <trkpt lat="50.5236" lon="1.61483">
        <ele>6.9</ele>
        <time>2014-09-19T09:11:22Z</time>
      </trkpt>
      <trkpt lat="50.52371" lon="1.61464">
        <ele>6.9</ele>
        <time>2014-09-19T09:11:35Z</time>
      </trkpt>
      <trkpt lat="50.52377" lon="1.61454">
        <ele>6.9</ele>
        <time>2014-09-19T09:11:42Z</time>
      </trkpt>
      <trkpt lat="50.52383" lon="1.61444">
        <ele>7.7</ele>
        <time>2014-09-19T09:11:49Z</time>
      </trkpt>
      <trkpt lat="50.52389" lon="1.61437">
        <ele>7.1</ele>
        <time>2014-09-19T09:11:55Z</time>
      </trkpt>
      <trkpt lat="50.52395" lon="1.61428">
        <ele>6.5</ele>
        <time>2014-09-19T09:12:01Z</time>
      </trkpt>
      <trkpt lat="50.524" lon="1.61419">
        <ele>6.9</ele>
        <time>2014-09-19T09:12:07Z</time>
      </trkpt>
      <trkpt lat="50.52406" lon="1.61409">
        <ele>6.7</ele>
        <time>2014-09-19T09:12:14Z</time>
      </trkpt>
      <trkpt lat="50.52412" lon="1.61401">
        <ele>6.5</ele>
        <time>2014-09-19T09:12:20Z</time>
      </trkpt>
      <trkpt lat="50.52418" lon="1.61392">
        <ele>6.7</ele>
        <time>2014-09-19T09:12:26Z</time>
      </trkpt>
      <trkpt lat="50.52419" lon="1.61391">
        <ele>6.6</ele>
        <time>2014-09-19T09:12:27Z</time>
      </trkpt>
      <trkpt lat="50.52428" lon="1.61374">
        <ele>6</ele>
        <time>2014-09-19T09:12:38Z</time>
      </trkpt>
      <trkpt lat="50.52434" lon="1.61365">
        <ele>6.7</ele>
        <time>2014-09-19T09:12:44Z</time>
      </trkpt>
      <trkpt lat="50.52439" lon="1.61356">
        <ele>6.5</ele>
        <time>2014-09-19T09:12:50Z</time>
      </trkpt>
      <trkpt lat="50.52446" lon="1.61347">
        <ele>6.6</ele>
        <time>2014-09-19T09:12:56Z</time>
      </trkpt>
      <trkpt lat="50.52451" lon="1.61338">
        <ele>6.9</ele>
        <time>2014-09-19T09:13:02Z</time>
      </trkpt>
      <trkpt lat="50.52457" lon="1.61329">
        <ele>6.6</ele>
        <time>2014-09-19T09:13:08Z</time>
      </trkpt>
      <trkpt lat="50.52462" lon="1.6132">
        <ele>6.6</ele>
        <time>2014-09-19T09:13:14Z</time>
      </trkpt>
      <trkpt lat="50.52468" lon="1.6131">
        <ele>6.9</ele>
        <time>2014-09-19T09:13:21Z</time>
      </trkpt>
      <trkpt lat="50.52473" lon="1.613">
        <ele>6.9</ele>
        <time>2014-09-19T09:13:28Z</time>
      </trkpt>
      <trkpt lat="50.52474" lon="1.61298">
        <ele>6.9</ele>
        <time>2014-09-19T09:13:29Z</time>
      </trkpt>
      <trkpt lat="50.52484" lon="1.61279">
        <ele>7.3</ele>
        <time>2014-09-19T09:13:42Z</time>
      </trkpt>
      <trkpt lat="50.52489" lon="1.61269">
        <ele>6.9</ele>
        <time>2014-09-19T09:13:48Z</time>
      </trkpt>
      <trkpt lat="50.52494" lon="1.6126">
        <ele>6.7</ele>
        <time>2014-09-19T09:13:54Z</time>
      </trkpt>
      <trkpt lat="50.525" lon="1.6125">
        <ele>7.1</ele>
        <time>2014-09-19T09:14:01Z</time>
      </trkpt>
      <trkpt lat="50.52506" lon="1.6124">
        <ele>7.1</ele>
        <time>2014-09-19T09:14:08Z</time>
      </trkpt>
      <trkpt lat="50.52511" lon="1.61232">
        <ele>7.2</ele>
        <time>2014-09-19T09:14:15Z</time>
      </trkpt>
      <trkpt lat="50.52517" lon="1.61222">
        <ele>6.8</ele>
        <time>2014-09-19T09:14:22Z</time>
      </trkpt>
      <trkpt lat="50.52524" lon="1.61214">
        <ele>6.8</ele>
        <time>2014-09-19T09:14:28Z</time>
      </trkpt>
      <trkpt lat="50.52531" lon="1.61207">
        <ele>6.3</ele>
        <time>2014-09-19T09:14:34Z</time>
      </trkpt>
      <trkpt lat="50.52532" lon="1.61205">
        <ele>6.3</ele>
        <time>2014-09-19T09:14:35Z</time>
      </trkpt>
      <trkpt lat="50.52543" lon="1.6119">
        <ele>6.8</ele>
        <time>2014-09-19T09:14:46Z</time>
      </trkpt>
      <trkpt lat="50.52549" lon="1.6118">
        <ele>6.6</ele>
        <time>2014-09-19T09:14:53Z</time>
      </trkpt>
      <trkpt lat="50.52555" lon="1.6117">
        <ele>6.7</ele>
        <time>2014-09-19T09:15:00Z</time>
      </trkpt>
      <trkpt lat="50.52561" lon="1.61161">
        <ele>6.4</ele>
        <time>2014-09-19T09:15:06Z</time>
      </trkpt>
      <trkpt lat="50.52567" lon="1.6115">
        <ele>6.7</ele>
        <time>2014-09-19T09:15:13Z</time>
      </trkpt>
      <trkpt lat="50.52573" lon="1.6114">
        <ele>6.7</ele>
        <time>2014-09-19T09:15:20Z</time>
      </trkpt>
      <trkpt lat="50.52579" lon="1.6113">
        <ele>7.4</ele>
        <time>2014-09-19T09:15:27Z</time>
      </trkpt>
      <trkpt lat="50.52584" lon="1.61121">
        <ele>7.5</ele>
        <time>2014-09-19T09:15:33Z</time>
      </trkpt>
      <trkpt lat="50.5259" lon="1.61112">
        <ele>6.6</ele>
        <time>2014-09-19T09:15:39Z</time>
      </trkpt>
      <trkpt lat="50.52591" lon="1.61111">
        <ele>6.9</ele>
        <time>2014-09-19T09:15:40Z</time>
      </trkpt>
      <trkpt lat="50.52601" lon="1.61095">
        <ele>7.3</ele>
        <time>2014-09-19T09:15:51Z</time>
      </trkpt>
      <trkpt lat="50.52606" lon="1.61085">
        <ele>6</ele>
        <time>2014-09-19T09:15:57Z</time>
      </trkpt>
      <trkpt lat="50.52612" lon="1.61075">
        <ele>5.4</ele>
        <time>2014-09-19T09:16:04Z</time>
      </trkpt>
      <trkpt lat="50.52618" lon="1.61064">
        <ele>3.7</ele>
        <time>2014-09-19T09:16:11Z</time>
      </trkpt>
      <trkpt lat="50.52623" lon="1.61055">
        <ele>6.2</ele>
        <time>2014-09-19T09:16:17Z</time>
      </trkpt>
      <trkpt lat="50.52629" lon="1.61046">
        <ele>4</ele>
        <time>2014-09-19T09:16:24Z</time>
      </trkpt>
      <trkpt lat="50.52634" lon="1.61036">
        <ele>7</ele>
        <time>2014-09-19T09:16:31Z</time>
      </trkpt>
      <trkpt lat="50.5264" lon="1.61027">
        <ele>5</ele>
        <time>2014-09-19T09:16:38Z</time>
      </trkpt>
      <trkpt lat="50.52645" lon="1.61016">
        <ele>6.4</ele>
        <time>2014-09-19T09:17:43Z</time>
      </trkpt>
      <trkpt lat="50.52646" lon="1.61015">
        <ele>6.5</ele>
        <time>2014-09-19T09:17:44Z</time>
      </trkpt>
      <trkpt lat="50.52656" lon="1.60998">
        <ele>6</ele>
        <time>2014-09-19T09:17:55Z</time>
      </trkpt>
      <trkpt lat="50.52662" lon="1.60989">
        <ele>6.5</ele>
        <time>2014-09-19T09:18:01Z</time>
      </trkpt>
      <trkpt lat="50.52667" lon="1.60981">
        <ele>6.7</ele>
        <time>2014-09-19T09:18:07Z</time>
      </trkpt>
      <trkpt lat="50.52673" lon="1.60972">
        <ele>6.7</ele>
        <time>2014-09-19T09:18:13Z</time>
      </trkpt>
      <trkpt lat="50.52678" lon="1.60963">
        <ele>6.4</ele>
        <time>2014-09-19T09:18:19Z</time>
      </trkpt>
      <trkpt lat="50.52683" lon="1.60952">
        <ele>6.3</ele>
        <time>2014-09-19T09:18:26Z</time>
      </trkpt>
      <trkpt lat="50.52688" lon="1.60941">
        <ele>6.7</ele>
        <time>2014-09-19T09:18:33Z</time>
      </trkpt>
      <trkpt lat="50.52691" lon="1.6093">
        <ele>6.9</ele>
        <time>2014-09-19T09:18:39Z</time>
      </trkpt>
      <trkpt lat="50.52694" lon="1.60918">
        <ele>6.7</ele>
        <time>2014-09-19T09:18:45Z</time>
      </trkpt>
      <trkpt lat="50.52695" lon="1.60916">
        <ele>6.6</ele>
        <time>2014-09-19T09:18:46Z</time>
      </trkpt>
      <trkpt lat="50.52699" lon="1.60894">
        <ele>6.7</ele>
        <time>2014-09-19T09:18:57Z</time>
      </trkpt>
      <trkpt lat="50.527" lon="1.60882">
        <ele>6.7</ele>
        <time>2014-09-19T09:19:03Z</time>
      </trkpt>
      <trkpt lat="50.527" lon="1.6087">
        <ele>6.4</ele>
        <time>2014-09-19T09:19:09Z</time>
      </trkpt>
      <trkpt lat="50.52699" lon="1.60857">
        <ele>6.6</ele>
        <time>2014-09-19T09:19:15Z</time>
      </trkpt>
      <trkpt lat="50.52698" lon="1.60845">
        <ele>6.3</ele>
        <time>2014-09-19T09:19:21Z</time>
      </trkpt>
      <trkpt lat="50.52698" lon="1.60833">
        <ele>6.3</ele>
        <time>2014-09-19T09:19:27Z</time>
      </trkpt>
      <trkpt lat="50.52699" lon="1.60819">
        <ele>6.7</ele>
        <time>2014-09-19T09:19:34Z</time>
      </trkpt>
      <trkpt lat="50.52698" lon="1.60806">
        <ele>6.1</ele>
        <time>2014-09-19T09:19:41Z</time>
      </trkpt>
      <trkpt lat="50.527" lon="1.60793">
        <ele>6.8</ele>
        <time>2014-09-19T09:19:48Z</time>
      </trkpt>
      <trkpt lat="50.52701" lon="1.60791">
        <ele>6.6</ele>
        <time>2014-09-19T09:19:49Z</time>
      </trkpt>
      <trkpt lat="50.52706" lon="1.60768">
        <ele>7.2</ele>
        <time>2014-09-19T09:20:02Z</time>
      </trkpt>
      <trkpt lat="50.52711" lon="1.60756">
        <ele>7.3</ele>
        <time>2014-09-19T09:20:09Z</time>
      </trkpt>
      <trkpt lat="50.52716" lon="1.60746">
        <ele>6.7</ele>
        <time>2014-09-19T09:20:15Z</time>
      </trkpt>
      <trkpt lat="50.5272" lon="1.60737">
        <ele>8.3</ele>
        <time>2014-09-19T09:20:21Z</time>
      </trkpt>
      <trkpt lat="50.52725" lon="1.60727">
        <ele>7.5</ele>
        <time>2014-09-19T09:20:27Z</time>
      </trkpt>
      <trkpt lat="50.5273" lon="1.60717">
        <ele>7.5</ele>
        <time>2014-09-19T09:20:33Z</time>
      </trkpt>
      <trkpt lat="50.52736" lon="1.60707">
        <ele>6.8</ele>
        <time>2014-09-19T09:20:40Z</time>
      </trkpt>
      <trkpt lat="50.52741" lon="1.60695">
        <ele>7.9</ele>
        <time>2014-09-19T09:20:47Z</time>
      </trkpt>
      <trkpt lat="50.52746" lon="1.60686">
        <ele>7</ele>
        <time>2014-09-19T09:20:53Z</time>
      </trkpt>
      <trkpt lat="50.52747" lon="1.60684">
        <ele>7.2</ele>
        <time>2014-09-19T09:20:54Z</time>
      </trkpt>
      <trkpt lat="50.52756" lon="1.60666">
        <ele>7.5</ele>
        <time>2014-09-19T09:21:06Z</time>
      </trkpt>
      <trkpt lat="50.52763" lon="1.60656">
        <ele>6.9</ele>
        <time>2014-09-19T09:21:13Z</time>
      </trkpt>
      <trkpt lat="50.52767" lon="1.60644">
        <ele>5.5</ele>
        <time>2014-09-19T09:21:20Z</time>
      </trkpt>
      <trkpt lat="50.52773" lon="1.60633">
        <ele>3.9</ele>
        <time>2014-09-19T09:21:27Z</time>
      </trkpt>
      <trkpt lat="50.52778" lon="1.60624">
        <ele>5.7</ele>
        <time>2014-09-19T09:21:33Z</time>
      </trkpt>
      <trkpt lat="50.52782" lon="1.60614">
        <ele>6.7</ele>
        <time>2014-09-19T09:21:39Z</time>
      </trkpt>
      <trkpt lat="50.52787" lon="1.60604">
        <ele>5.9</ele>
        <time>2014-09-19T09:21:45Z</time>
      </trkpt>
      <trkpt lat="50.52792" lon="1.60595">
        <ele>7</ele>
        <time>2014-09-19T09:21:51Z</time>
      </trkpt>
      <trkpt lat="50.52798" lon="1.60584">
        <ele>6.9</ele>
        <time>2014-09-19T09:21:58Z</time>
      </trkpt>
      <trkpt lat="50.52799" lon="1.60583">
        <ele>7.1</ele>
        <time>2014-09-19T09:21:59Z</time>
      </trkpt>
      <trkpt lat="50.52805" lon="1.60561">
        <ele>5.5</ele>
        <time>2014-09-19T09:23:37Z</time>
      </trkpt>
      <trkpt lat="50.52805" lon="1.60558">
        <ele>5.2</ele>
        <time>2014-09-19T09:23:38Z</time>
      </trkpt>
      <trkpt lat="50.52806" lon="1.60537">
        <ele>2.6</ele>
        <time>2014-09-19T09:23:48Z</time>
      </trkpt>
      <trkpt lat="50.52811" lon="1.60527">
        <ele>2.7</ele>
        <time>2014-09-19T09:23:54Z</time>
      </trkpt>
      <trkpt lat="50.52818" lon="1.60518">
        <ele>4</ele>
        <time>2014-09-19T09:24:01Z</time>
      </trkpt>
      <trkpt lat="50.52823" lon="1.60509">
        <ele>-0.6</ele>
        <time>2014-09-19T09:24:08Z</time>
      </trkpt>
      <trkpt lat="50.52828" lon="1.60499">
        <ele>3.7</ele>
        <time>2014-09-19T09:24:14Z</time>
      </trkpt>
      <trkpt lat="50.52833" lon="1.6049">
        <ele>3.8</ele>
        <time>2014-09-19T09:24:20Z</time>
      </trkpt>
      <trkpt lat="50.52839" lon="1.6048">
        <ele>4.8</ele>
        <time>2014-09-19T09:24:26Z</time>
      </trkpt>
      <trkpt lat="50.52844" lon="1.60469">
        <ele>3.7</ele>
        <time>2014-09-19T09:24:32Z</time>
      </trkpt>
      <trkpt lat="50.52849" lon="1.60459">
        <ele>3.5</ele>
        <time>2014-09-19T09:24:38Z</time>
      </trkpt>
      <trkpt lat="50.5285" lon="1.60457">
        <ele>3.1</ele>
        <time>2014-09-19T09:24:39Z</time>
      </trkpt>
      <trkpt lat="50.52859" lon="1.60438">
        <ele>5.2</ele>
        <time>2014-09-19T09:24:50Z</time>
      </trkpt>
      <trkpt lat="50.52863" lon="1.60428">
        <ele>5</ele>
        <time>2014-09-19T09:24:56Z</time>
      </trkpt>
      <trkpt lat="50.52868" lon="1.60419">
        <ele>4.6</ele>
        <time>2014-09-19T09:25:02Z</time>
      </trkpt>
      <trkpt lat="50.52873" lon="1.60409">
        <ele>4.3</ele>
        <time>2014-09-19T09:25:08Z</time>
      </trkpt>
      <trkpt lat="50.52878" lon="1.60399">
        <ele>5</ele>
        <time>2014-09-19T09:25:14Z</time>
      </trkpt>
      <trkpt lat="50.52882" lon="1.60389">
        <ele>4.9</ele>
        <time>2014-09-19T09:25:20Z</time>
      </trkpt>
      <trkpt lat="50.52887" lon="1.60377">
        <ele>-0.9</ele>
        <time>2014-09-19T09:25:27Z</time>
      </trkpt>
      <trkpt lat="50.52893" lon="1.60366">
        <ele>2.7</ele>
        <time>2014-09-19T09:25:34Z</time>
      </trkpt>
      <trkpt lat="50.52898" lon="1.60356">
        <ele>4.3</ele>
        <time>2014-09-19T09:25:40Z</time>
      </trkpt>
      <trkpt lat="50.52898" lon="1.60354">
        <ele>4.8</ele>
        <time>2014-09-19T09:25:41Z</time>
      </trkpt>
      <trkpt lat="50.52907" lon="1.60335">
        <ele>5.4</ele>
        <time>2014-09-19T09:25:52Z</time>
      </trkpt>
      <trkpt lat="50.52913" lon="1.60325">
        <ele>4.6</ele>
        <time>2014-09-19T09:25:59Z</time>
      </trkpt>
      <trkpt lat="50.52919" lon="1.60316">
        <ele>4</ele>
        <time>2014-09-19T09:26:05Z</time>
      </trkpt>
      <trkpt lat="50.52923" lon="1.60305">
        <ele>4.9</ele>
        <time>2014-09-19T09:26:11Z</time>
      </trkpt>
      <trkpt lat="50.52925" lon="1.60292">
        <ele>3.6</ele>
        <time>2014-09-19T09:26:17Z</time>
      </trkpt>
      <trkpt lat="50.52925" lon="1.60278">
        <ele>4.6</ele>
        <time>2014-09-19T09:26:23Z</time>
      </trkpt>
      <trkpt lat="50.52924" lon="1.60265">
        <ele>4.7</ele>
        <time>2014-09-19T09:26:30Z</time>
      </trkpt>
      <trkpt lat="50.5292" lon="1.60252">
        <ele>5.4</ele>
        <time>2014-09-19T09:26:37Z</time>
      </trkpt>
      <trkpt lat="50.52916" lon="1.60242">
        <ele>2.9</ele>
        <time>2014-09-19T09:26:43Z</time>
      </trkpt>
      <trkpt lat="50.52915" lon="1.6024">
        <ele>3.5</ele>
        <time>2014-09-19T09:26:44Z</time>
      </trkpt>
      <trkpt lat="50.52907" lon="1.60219">
        <ele>4.8</ele>
        <time>2014-09-19T09:26:56Z</time>
      </trkpt>
      <trkpt lat="50.52902" lon="1.6021">
        <ele>4.7</ele>
        <time>2014-09-19T09:27:02Z</time>
      </trkpt>
      <trkpt lat="50.52895" lon="1.60202">
        <ele>6.4</ele>
        <time>2014-09-19T09:27:08Z</time>
      </trkpt>
      <trkpt lat="50.52889" lon="1.60194">
        <ele>2</ele>
        <time>2014-09-19T09:27:14Z</time>
      </trkpt>
      <trkpt lat="50.52884" lon="1.60183">
        <ele>6.2</ele>
        <time>2014-09-19T09:27:26Z</time>
      </trkpt>
      <trkpt lat="50.52878" lon="1.60174">
        <ele>7.3</ele>
        <time>2014-09-19T09:27:33Z</time>
      </trkpt>
      <trkpt lat="50.52871" lon="1.60164">
        <ele>7.7</ele>
        <time>2014-09-19T09:27:40Z</time>
      </trkpt>
      <trkpt lat="50.52865" lon="1.60155">
        <ele>7.7</ele>
        <time>2014-09-19T09:27:46Z</time>
      </trkpt>
      <trkpt lat="50.52864" lon="1.60154">
        <ele>7.3</ele>
        <time>2014-09-19T09:27:47Z</time>
      </trkpt>
      <trkpt lat="50.52853" lon="1.60138">
        <ele>7</ele>
        <time>2014-09-19T09:27:58Z</time>
      </trkpt>
      <trkpt lat="50.52846" lon="1.60129">
        <ele>7.2</ele>
        <time>2014-09-19T09:28:04Z</time>
      </trkpt>
      <trkpt lat="50.5284" lon="1.6012">
        <ele>7.4</ele>
        <time>2014-09-19T09:28:10Z</time>
      </trkpt>
      <trkpt lat="50.52833" lon="1.6011">
        <ele>6.6</ele>
        <time>2014-09-19T09:28:16Z</time>
      </trkpt>
      <trkpt lat="50.52827" lon="1.60101">
        <ele>6.7</ele>
        <time>2014-09-19T09:28:22Z</time>
      </trkpt>
      <trkpt lat="50.52821" lon="1.60092">
        <ele>6.9</ele>
        <time>2014-09-19T09:28:28Z</time>
      </trkpt>
      <trkpt lat="50.52814" lon="1.60084">
        <ele>7.4</ele>
        <time>2014-09-19T09:28:34Z</time>
      </trkpt>
      <trkpt lat="50.52808" lon="1.60076">
        <ele>6.6</ele>
        <time>2014-09-19T09:28:40Z</time>
      </trkpt>
      <trkpt lat="50.52801" lon="1.60068">
        <ele>6.3</ele>
        <time>2014-09-19T09:28:46Z</time>
      </trkpt>
      <trkpt lat="50.52794" lon="1.60062">
        <ele>6.9</ele>
        <time>2014-09-19T09:28:53Z</time>
      </trkpt>
      <trkpt lat="50.52793" lon="1.60061">
        <ele>6.9</ele>
        <time>2014-09-19T09:28:54Z</time>
      </trkpt>
      <trkpt lat="50.52778" lon="1.60052">
        <ele>6</ele>
        <time>2014-09-19T09:29:09Z</time>
      </trkpt>
      <trkpt lat="50.52771" lon="1.60049">
        <ele>5.6</ele>
        <time>2014-09-19T09:29:15Z</time>
      </trkpt>
      <trkpt lat="50.52762" lon="1.60048">
        <ele>6.6</ele>
        <time>2014-09-19T09:29:21Z</time>
      </trkpt>
      <trkpt lat="50.52754" lon="1.60046">
        <ele>5.3</ele>
        <time>2014-09-19T09:29:27Z</time>
      </trkpt>
      <trkpt lat="50.52747" lon="1.60041">
        <ele>6.2</ele>
        <time>2014-09-19T09:29:33Z</time>
      </trkpt>
      <trkpt lat="50.52739" lon="1.60034">
        <ele>3.9</ele>
        <time>2014-09-19T09:29:39Z</time>
      </trkpt>
      <trkpt lat="50.52732" lon="1.60025">
        <ele>3.8</ele>
        <time>2014-09-19T09:29:45Z</time>
      </trkpt>
      <trkpt lat="50.52725" lon="1.60018">
        <ele>-0.8</ele>
        <time>2014-09-19T09:29:51Z</time>
      </trkpt>
      <trkpt lat="50.52717" lon="1.60011">
        <ele>4.9</ele>
        <time>2014-09-19T09:29:57Z</time>
      </trkpt>
      <trkpt lat="50.52716" lon="1.6001">
        <ele>5.4</ele>
        <time>2014-09-19T09:29:58Z</time>
      </trkpt>
      <trkpt lat="50.52704" lon="1.59993">
        <ele>4.4</ele>
        <time>2014-09-19T09:30:10Z</time>
      </trkpt>
      <trkpt lat="50.52699" lon="1.59984">
        <ele>5.2</ele>
        <time>2014-09-19T09:30:16Z</time>
      </trkpt>
      <trkpt lat="50.52693" lon="1.59974">
        <ele>6.3</ele>
        <time>2014-09-19T09:30:23Z</time>
      </trkpt>
      <trkpt lat="50.52688" lon="1.59965">
        <ele>6.1</ele>
        <time>2014-09-19T09:30:31Z</time>
      </trkpt>
      <trkpt lat="50.52683" lon="1.59953">
        <ele>0.2</ele>
        <time>2014-09-19T09:30:38Z</time>
      </trkpt>
      <trkpt lat="50.52678" lon="1.59942">
        <ele>2.4</ele>
        <time>2014-09-19T09:30:45Z</time>
      </trkpt>
      <trkpt lat="50.52673" lon="1.59932">
        <ele>5.2</ele>
        <time>2014-09-19T09:30:51Z</time>
      </trkpt>
      <trkpt lat="50.52668" lon="1.5992">
        <ele>5.9</ele>
        <time>2014-09-19T09:30:57Z</time>
      </trkpt>
      <trkpt lat="50.52664" lon="1.59909">
        <ele>5.9</ele>
        <time>2014-09-19T09:31:02Z</time>
      </trkpt>
      <trkpt lat="50.52663" lon="1.59906">
        <ele>5.5</ele>
        <time>2014-09-19T09:31:03Z</time>
      </trkpt>
      <trkpt lat="50.52655" lon="1.59887">
        <ele>6.4</ele>
        <time>2014-09-19T09:31:10Z</time>
      </trkpt>
      <trkpt lat="50.52651" lon="1.59877">
        <ele>0.1</ele>
        <time>2014-09-19T09:31:15Z</time>
      </trkpt>
      <trkpt lat="50.52645" lon="1.59867">
        <ele>5.2</ele>
        <time>2014-09-19T09:31:21Z</time>
      </trkpt>
      <trkpt lat="50.52639" lon="1.59857">
        <ele>1.7</ele>
        <time>2014-09-19T09:31:28Z</time>
      </trkpt>
      <trkpt lat="50.52634" lon="1.59847">
        <ele>6</ele>
        <time>2014-09-19T09:31:35Z</time>
      </trkpt>
      <trkpt lat="50.5263" lon="1.59835">
        <ele>4.2</ele>
        <time>2014-09-19T09:31:43Z</time>
      </trkpt>
      <trkpt lat="50.52627" lon="1.59823">
        <ele>5.5</ele>
        <time>2014-09-19T09:31:50Z</time>
      </trkpt>
      <trkpt lat="50.52625" lon="1.59811">
        <ele>6.6</ele>
        <time>2014-09-19T09:31:55Z</time>
      </trkpt>
      <trkpt lat="50.52624" lon="1.59798">
        <ele>6.8</ele>
        <time>2014-09-19T09:32:01Z</time>
      </trkpt>
      <trkpt lat="50.52623" lon="1.59785">
        <ele>2.8</ele>
        <time>2014-09-19T09:32:08Z</time>
      </trkpt>
      <trkpt lat="50.52623" lon="1.59783">
        <ele>1.1</ele>
        <time>2014-09-19T09:32:09Z</time>
      </trkpt>
      <trkpt lat="50.52615" lon="1.59762">
        <ele>6.7</ele>
        <time>2014-09-19T09:32:20Z</time>
      </trkpt>
      <trkpt lat="50.52609" lon="1.59753">
        <ele>6.7</ele>
        <time>2014-09-19T09:32:25Z</time>
      </trkpt>
      <trkpt lat="50.52604" lon="1.59745">
        <ele>6.2</ele>
        <time>2014-09-19T09:32:30Z</time>
      </trkpt>
      <trkpt lat="50.52599" lon="1.59736">
        <ele>5.4</ele>
        <time>2014-09-19T09:32:35Z</time>
      </trkpt>
      <trkpt lat="50.52593" lon="1.59727">
        <ele>1.4</ele>
        <time>2014-09-19T09:32:40Z</time>
      </trkpt>
      <trkpt lat="50.52587" lon="1.59719">
        <ele>6.3</ele>
        <time>2014-09-19T09:32:45Z</time>
      </trkpt>
      <trkpt lat="50.5258" lon="1.59713">
        <ele>5.5</ele>
        <time>2014-09-19T09:32:51Z</time>
      </trkpt>
      <trkpt lat="50.52573" lon="1.59707">
        <ele>6.7</ele>
        <time>2014-09-19T09:32:57Z</time>
      </trkpt>
      <trkpt lat="50.52565" lon="1.597">
        <ele>6.7</ele>
        <time>2014-09-19T09:33:04Z</time>
      </trkpt>
      <trkpt lat="50.52558" lon="1.59693">
        <ele>3.7</ele>
        <time>2014-09-19T09:33:11Z</time>
      </trkpt>
      <trkpt lat="50.52557" lon="1.59692">
        <ele>2.6</ele>
        <time>2014-09-19T09:33:12Z</time>
      </trkpt>
      <trkpt lat="50.52544" lon="1.59677">
        <ele>5.9</ele>
        <time>2014-09-19T09:33:25Z</time>
      </trkpt>
      <trkpt lat="50.52537" lon="1.59669">
        <ele>6.6</ele>
        <time>2014-09-19T09:33:32Z</time>
      </trkpt>
      <trkpt lat="50.52531" lon="1.59664">
        <ele>6.1</ele>
        <time>2014-09-19T09:33:37Z</time>
      </trkpt>
      <trkpt lat="50.52524" lon="1.59657">
        <ele>7.7</ele>
        <time>2014-09-19T09:33:42Z</time>
      </trkpt>
      <trkpt lat="50.52517" lon="1.59651">
        <ele>4.7</ele>
        <time>2014-09-19T09:33:48Z</time>
      </trkpt>
      <trkpt lat="50.52509" lon="1.59645">
        <ele>6.3</ele>
        <time>2014-09-19T09:33:54Z</time>
      </trkpt>
      <trkpt lat="50.52502" lon="1.59639">
        <ele>7</ele>
        <time>2014-09-19T09:34:00Z</time>
      </trkpt>
      <trkpt lat="50.52495" lon="1.59633">
        <ele>3.4</ele>
        <time>2014-09-19T09:34:06Z</time>
      </trkpt>
      <trkpt lat="50.52487" lon="1.59629">
        <ele>6.8</ele>
        <time>2014-09-19T09:34:13Z</time>
      </trkpt>
      <trkpt lat="50.52485" lon="1.59629">
        <ele>6.9</ele>
        <time>2014-09-19T09:34:14Z</time>
      </trkpt>
      <trkpt lat="50.5247" lon="1.59625">
        <ele>7.4</ele>
        <time>2014-09-19T09:34:26Z</time>
      </trkpt>
      <trkpt lat="50.52462" lon="1.59623">
        <ele>3.1</ele>
        <time>2014-09-19T09:34:32Z</time>
      </trkpt>
      <trkpt lat="50.52454" lon="1.59618">
        <ele>6.4</ele>
        <time>2014-09-19T09:34:38Z</time>
      </trkpt>
      <trkpt lat="50.52446" lon="1.59613">
        <ele>7</ele>
        <time>2014-09-19T09:34:43Z</time>
      </trkpt>
      <trkpt lat="50.52438" lon="1.59607">
        <ele>6</ele>
        <time>2014-09-19T09:34:48Z</time>
      </trkpt>
      <trkpt lat="50.5243" lon="1.59604">
        <ele>6.3</ele>
        <time>2014-09-19T09:34:54Z</time>
      </trkpt>
      <trkpt lat="50.52421" lon="1.59605">
        <ele>4.7</ele>
        <time>2014-09-19T09:35:00Z</time>
      </trkpt>
      <trkpt lat="50.52413" lon="1.59603">
        <ele>6.4</ele>
        <time>2014-09-19T09:35:08Z</time>
      </trkpt>
      <trkpt lat="50.52406" lon="1.59595">
        <ele>7.7</ele>
        <time>2014-09-19T09:35:15Z</time>
      </trkpt>
      <trkpt lat="50.52405" lon="1.59594">
        <ele>7.3</ele>
        <time>2014-09-19T09:35:16Z</time>
      </trkpt>
      <trkpt lat="50.52389" lon="1.59595">
        <ele>6.8</ele>
        <time>2014-09-19T09:35:30Z</time>
      </trkpt>
      <trkpt lat="50.52381" lon="1.59599">
        <ele>7.4</ele>
        <time>2014-09-19T09:35:36Z</time>
      </trkpt>
      <trkpt lat="50.52373" lon="1.59603">
        <ele>6.7</ele>
        <time>2014-09-19T09:35:42Z</time>
      </trkpt>
      <trkpt lat="50.52365" lon="1.59606">
        <ele>7.1</ele>
        <time>2014-09-19T09:35:48Z</time>
      </trkpt>
      <trkpt lat="50.52358" lon="1.59599">
        <ele>7.1</ele>
        <time>2014-09-19T09:35:56Z</time>
      </trkpt>
      <trkpt lat="50.52351" lon="1.59591">
        <ele>6.8</ele>
        <time>2014-09-19T09:36:03Z</time>
      </trkpt>
      <trkpt lat="50.52342" lon="1.5959">
        <ele>7.1</ele>
        <time>2014-09-19T09:36:09Z</time>
      </trkpt>
      <trkpt lat="50.52334" lon="1.59593">
        <ele>7.5</ele>
        <time>2014-09-19T09:36:16Z</time>
      </trkpt>
      <trkpt lat="50.52332" lon="1.59593">
        <ele>7.6</ele>
        <time>2014-09-19T09:36:17Z</time>
      </trkpt>
      <trkpt lat="50.52347" lon="1.59581">
        <ele>6.7</ele>
        <time>2014-09-19T09:36:45Z</time>
      </trkpt>
      <trkpt lat="50.5235" lon="1.59569">
        <ele>6.7</ele>
        <time>2014-09-19T09:36:51Z</time>
      </trkpt>
      <trkpt lat="50.52353" lon="1.59556">
        <ele>6.9</ele>
        <time>2014-09-19T09:36:57Z</time>
      </trkpt>
      <trkpt lat="50.52356" lon="1.59542">
        <ele>6.7</ele>
        <time>2014-09-19T09:37:03Z</time>
      </trkpt>
      <trkpt lat="50.52358" lon="1.59531">
        <ele>6.9</ele>
        <time>2014-09-19T09:37:09Z</time>
      </trkpt>
      <trkpt lat="50.52362" lon="1.59519">
        <ele>6.9</ele>
        <time>2014-09-19T09:37:14Z</time>
      </trkpt>
      <trkpt lat="50.52364" lon="1.59506">
        <ele>6.9</ele>
        <time>2014-09-19T09:37:19Z</time>
      </trkpt>
      <trkpt lat="50.52364" lon="1.59503">
        <ele>6.9</ele>
        <time>2014-09-19T09:37:20Z</time>
      </trkpt>
      <trkpt lat="50.52366" lon="1.59481">
        <ele>5.3</ele>
        <time>2014-09-19T09:37:30Z</time>
      </trkpt>
      <trkpt lat="50.52365" lon="1.59467">
        <ele>6.2</ele>
        <time>2014-09-19T09:37:36Z</time>
      </trkpt>
      <trkpt lat="50.52364" lon="1.59454">
        <ele>7.5</ele>
        <time>2014-09-19T09:37:42Z</time>
      </trkpt>
      <trkpt lat="50.52363" lon="1.59442">
        <ele>7</ele>
        <time>2014-09-19T09:37:48Z</time>
      </trkpt>
      <trkpt lat="50.52362" lon="1.59429">
        <ele>6.8</ele>
        <time>2014-09-19T09:37:55Z</time>
      </trkpt>
      <trkpt lat="50.52362" lon="1.59416">
        <ele>6.7</ele>
        <time>2014-09-19T09:38:01Z</time>
      </trkpt>
      <trkpt lat="50.52361" lon="1.59403">
        <ele>6.6</ele>
        <time>2014-09-19T09:38:07Z</time>
      </trkpt>
      <trkpt lat="50.5236" lon="1.59389">
        <ele>6.4</ele>
        <time>2014-09-19T09:38:13Z</time>
      </trkpt>
      <trkpt lat="50.5236" lon="1.59376">
        <ele>7.1</ele>
        <time>2014-09-19T09:38:19Z</time>
      </trkpt>
      <trkpt lat="50.52359" lon="1.59363">
        <ele>5.6</ele>
        <time>2014-09-19T09:38:25Z</time>
      </trkpt>
      <trkpt lat="50.52359" lon="1.59361">
        <ele>5.5</ele>
        <time>2014-09-19T09:38:26Z</time>
      </trkpt>
      <trkpt lat="50.52359" lon="1.59337">
        <ele>6.2</ele>
        <time>2014-09-19T09:38:38Z</time>
      </trkpt>
      <trkpt lat="50.5236" lon="1.59324">
        <ele>6.8</ele>
        <time>2014-09-19T09:38:45Z</time>
      </trkpt>
      <trkpt lat="50.52362" lon="1.59311">
        <ele>6.2</ele>
        <time>2014-09-19T09:39:07Z</time>
      </trkpt>
      <trkpt lat="50.5236" lon="1.59298">
        <ele>6.2</ele>
        <time>2014-09-19T09:39:14Z</time>
      </trkpt>
      <trkpt lat="50.52359" lon="1.59285">
        <ele>6.9</ele>
        <time>2014-09-19T09:39:22Z</time>
      </trkpt>
      <trkpt lat="50.52359" lon="1.59271">
        <ele>6.9</ele>
        <time>2014-09-19T09:39:30Z</time>
      </trkpt>
      <trkpt lat="50.52359" lon="1.5927">
        <ele>6.9</ele>
        <time>2014-09-19T09:39:31Z</time>
      </trkpt>
      <trkpt lat="50.52351" lon="1.59248">
        <ele>6.2</ele>
        <time>2014-09-19T09:39:59Z</time>
      </trkpt>
      <trkpt lat="50.52342" lon="1.59247">
        <ele>5.8</ele>
        <time>2014-09-19T09:40:06Z</time>
      </trkpt>
      <trkpt lat="50.52334" lon="1.59251">
        <ele>6.2</ele>
        <time>2014-09-19T09:40:15Z</time>
      </trkpt>
      <trkpt lat="50.52336" lon="1.59238">
        <ele>5</ele>
        <time>2014-09-19T09:40:40Z</time>
      </trkpt>
      <trkpt lat="50.52336" lon="1.59236">
        <ele>4.4</ele>
        <time>2014-09-19T09:40:41Z</time>
      </trkpt>
      <trkpt lat="50.52328" lon="1.59216">
        <ele>4.9</ele>
        <time>2014-09-19T09:40:54Z</time>
      </trkpt>
      <trkpt lat="50.52323" lon="1.59205">
        <ele>5.9</ele>
        <time>2014-09-19T09:41:01Z</time>
      </trkpt>
      <trkpt lat="50.52318" lon="1.59194">
        <ele>6.3</ele>
        <time>2014-09-19T09:41:09Z</time>
      </trkpt>
      <trkpt lat="50.52311" lon="1.59185">
        <ele>6.1</ele>
        <time>2014-09-19T09:41:17Z</time>
      </trkpt>
      <trkpt lat="50.52319" lon="1.59189">
        <ele>5.9</ele>
        <time>2014-09-19T09:41:51Z</time>
      </trkpt>
      <trkpt lat="50.5232" lon="1.59189">
        <ele>5.7</ele>
        <time>2014-09-19T09:41:52Z</time>
      </trkpt>
      <trkpt lat="50.52334" lon="1.59197">
        <ele>4.6</ele>
        <time>2014-09-19T09:42:07Z</time>
      </trkpt>
      <trkpt lat="50.5234" lon="1.59207">
        <ele>6.6</ele>
        <time>2014-09-19T09:42:15Z</time>
      </trkpt>
      <trkpt lat="50.52348" lon="1.59214">
        <ele>5.8</ele>
        <time>2014-09-19T09:42:22Z</time>
      </trkpt>
      <trkpt lat="50.52355" lon="1.59221">
        <ele>6.2</ele>
        <time>2014-09-19T09:42:35Z</time>
      </trkpt>
      <trkpt lat="50.52363" lon="1.59223">
        <ele>6</ele>
        <time>2014-09-19T09:42:44Z</time>
      </trkpt>
      <trkpt lat="50.52368" lon="1.59235">
        <ele>6</ele>
        <time>2014-09-19T09:43:20Z</time>
      </trkpt>
      <trkpt lat="50.52368" lon="1.59236">
        <ele>6.2</ele>
        <time>2014-09-19T09:43:21Z</time>
      </trkpt>
      <trkpt lat="50.5238" lon="1.59247">
        <ele>6.3</ele>
        <time>2014-09-19T09:45:20Z</time>
      </trkpt>
      <trkpt lat="50.5238" lon="1.59247">
        <ele>6.2</ele>
        <time>2014-09-19T09:45:21Z</time>
      </trkpt>
      <trkpt lat="50.52368" lon="1.59263">
        <ele>6.6</ele>
        <time>2014-09-19T09:45:52Z</time>
      </trkpt>
      <trkpt lat="50.52367" lon="1.59276">
        <ele>2.8</ele>
        <time>2014-09-19T09:46:00Z</time>
      </trkpt>
      <trkpt lat="50.52367" lon="1.59289">
        <ele>6.2</ele>
        <time>2014-09-19T09:46:07Z</time>
      </trkpt>
      <trkpt lat="50.52368" lon="1.59302">
        <ele>5.8</ele>
        <time>2014-09-19T09:46:14Z</time>
      </trkpt>
      <trkpt lat="50.5237" lon="1.59315">
        <ele>6</ele>
        <time>2014-09-19T09:46:21Z</time>
      </trkpt>
      <trkpt lat="50.5237" lon="1.59317">
        <ele>6</ele>
        <time>2014-09-19T09:46:22Z</time>
      </trkpt>
      <trkpt lat="50.52386" lon="1.59321">
        <ele>5.8</ele>
        <time>2014-09-19T09:46:38Z</time>
      </trkpt>
      <trkpt lat="50.52394" lon="1.5932">
        <ele>6.3</ele>
        <time>2014-09-19T09:46:45Z</time>
      </trkpt>
      <trkpt lat="50.52403" lon="1.59321">
        <ele>7.4</ele>
        <time>2014-09-19T09:46:51Z</time>
      </trkpt>
      <trkpt lat="50.52412" lon="1.59321">
        <ele>6.3</ele>
        <time>2014-09-19T09:46:58Z</time>
      </trkpt>
      <trkpt lat="50.52421" lon="1.59319">
        <ele>5.1</ele>
        <time>2014-09-19T09:47:05Z</time>
      </trkpt>
      <trkpt lat="50.52429" lon="1.59318">
        <ele>5.2</ele>
        <time>2014-09-19T09:47:12Z</time>
      </trkpt>
      <trkpt lat="50.52438" lon="1.59316">
        <ele>5.8</ele>
        <time>2014-09-19T09:47:19Z</time>
      </trkpt>
      <trkpt lat="50.52446" lon="1.59315">
        <ele>4.8</ele>
        <time>2014-09-19T09:47:24Z</time>
      </trkpt>
      <trkpt lat="50.52448" lon="1.59315">
        <ele>5.1</ele>
        <time>2014-09-19T09:47:25Z</time>
      </trkpt>
      <trkpt lat="50.52463" lon="1.59316">
        <ele>6.9</ele>
        <time>2014-09-19T09:47:35Z</time>
      </trkpt>
      <trkpt lat="50.52471" lon="1.59316">
        <ele>6.9</ele>
        <time>2014-09-19T09:47:41Z</time>
      </trkpt>
      <trkpt lat="50.52479" lon="1.59316">
        <ele>5.9</ele>
        <time>2014-09-19T09:47:47Z</time>
      </trkpt>
      <trkpt lat="50.52488" lon="1.59317">
        <ele>2.4</ele>
        <time>2014-09-19T09:47:54Z</time>
      </trkpt>
      <trkpt lat="50.52497" lon="1.59317">
        <ele>6.6</ele>
        <time>2014-09-19T09:48:00Z</time>
      </trkpt>
      <trkpt lat="50.52505" lon="1.5932">
        <ele>5.5</ele>
        <time>2014-09-19T09:48:08Z</time>
      </trkpt>
      <trkpt lat="50.52513" lon="1.59325">
        <ele>6</ele>
        <time>2014-09-19T09:48:15Z</time>
      </trkpt>
      <trkpt lat="50.52521" lon="1.59331">
        <ele>5.9</ele>
        <time>2014-09-19T09:48:23Z</time>
      </trkpt>
      <trkpt lat="50.52528" lon="1.59335">
        <ele>6.5</ele>
        <time>2014-09-19T09:48:30Z</time>
      </trkpt>
      <trkpt lat="50.5253" lon="1.59335">
        <ele>6.6</ele>
        <time>2014-09-19T09:48:31Z</time>
      </trkpt>
      <trkpt lat="50.52545" lon="1.59342">
        <ele>6.2</ele>
        <time>2014-09-19T09:48:43Z</time>
      </trkpt>
      <trkpt lat="50.52553" lon="1.59346">
        <ele>6.7</ele>
        <time>2014-09-19T09:48:49Z</time>
      </trkpt>
      <trkpt lat="50.52561" lon="1.59349">
        <ele>7.3</ele>
        <time>2014-09-19T09:48:55Z</time>
      </trkpt>
      <trkpt lat="50.52569" lon="1.59352">
        <ele>7</ele>
        <time>2014-09-19T09:49:01Z</time>
      </trkpt>
      <trkpt lat="50.52576" lon="1.59355">
        <ele>6.1</ele>
        <time>2014-09-19T09:49:07Z</time>
      </trkpt>
      <trkpt lat="50.52584" lon="1.59359">
        <ele>4.7</ele>
        <time>2014-09-19T09:49:13Z</time>
      </trkpt>
      <trkpt lat="50.52591" lon="1.59363">
        <ele>6.3</ele>
        <time>2014-09-19T09:49:19Z</time>
      </trkpt>
      <trkpt lat="50.52599" lon="1.59369">
        <ele>6.7</ele>
        <time>2014-09-19T09:49:25Z</time>
      </trkpt>
      <trkpt lat="50.52607" lon="1.59374">
        <ele>6.9</ele>
        <time>2014-09-19T09:49:32Z</time>
      </trkpt>
      <trkpt lat="50.52608" lon="1.59374">
        <ele>6.9</ele>
        <time>2014-09-19T09:49:33Z</time>
      </trkpt>
      <trkpt lat="50.52622" lon="1.59383">
        <ele>5.3</ele>
        <time>2014-09-19T09:49:45Z</time>
      </trkpt>
      <trkpt lat="50.5263" lon="1.59385">
        <ele>5.5</ele>
        <time>2014-09-19T09:49:52Z</time>
      </trkpt>
      <trkpt lat="50.52638" lon="1.59381">
        <ele>6.4</ele>
        <time>2014-09-19T09:49:57Z</time>
      </trkpt>
      <trkpt lat="50.52647" lon="1.59382">
        <ele>6.4</ele>
        <time>2014-09-19T09:50:04Z</time>
      </trkpt>
      <trkpt lat="50.52654" lon="1.59387">
        <ele>6.2</ele>
        <time>2014-09-19T09:50:12Z</time>
      </trkpt>
      <trkpt lat="50.52661" lon="1.59394">
        <ele>5.7</ele>
        <time>2014-09-19T09:50:20Z</time>
      </trkpt>
      <trkpt lat="50.52668" lon="1.594">
        <ele>7.2</ele>
        <time>2014-09-19T09:50:27Z</time>
      </trkpt>
      <trkpt lat="50.52676" lon="1.59405">
        <ele>5.6</ele>
        <time>2014-09-19T09:50:34Z</time>
      </trkpt>
      <trkpt lat="50.52677" lon="1.59406">
        <ele>5.9</ele>
        <time>2014-09-19T09:50:35Z</time>
      </trkpt>
      <trkpt lat="50.5269" lon="1.59421">
        <ele>5.6</ele>
        <time>2014-09-19T09:50:46Z</time>
      </trkpt>
      <trkpt lat="50.52698" lon="1.59426">
        <ele>5.6</ele>
        <time>2014-09-19T09:50:52Z</time>
      </trkpt>
      <trkpt lat="50.52706" lon="1.59425">
        <ele>6.2</ele>
        <time>2014-09-19T09:50:59Z</time>
      </trkpt>
      <trkpt lat="50.52714" lon="1.59419">
        <ele>6.5</ele>
        <time>2014-09-19T09:51:07Z</time>
      </trkpt>
      <trkpt lat="50.52721" lon="1.59412">
        <ele>6.9</ele>
        <time>2014-09-19T09:51:14Z</time>
      </trkpt>
      <trkpt lat="50.52728" lon="1.59405">
        <ele>6.3</ele>
        <time>2014-09-19T09:51:20Z</time>
      </trkpt>
      <trkpt lat="50.52736" lon="1.59403">
        <ele>6.8</ele>
        <time>2014-09-19T09:51:27Z</time>
      </trkpt>
      <trkpt lat="50.52744" lon="1.5941">
        <ele>6.2</ele>
        <time>2014-09-19T09:51:34Z</time>
      </trkpt>
      <trkpt lat="50.52747" lon="1.59422">
        <ele>6.8</ele>
        <time>2014-09-19T09:51:39Z</time>
      </trkpt>
      <trkpt lat="50.52747" lon="1.59425">
        <ele>6.8</ele>
        <time>2014-09-19T09:51:40Z</time>
      </trkpt>
      <trkpt lat="50.52753" lon="1.59447">
        <ele>6.3</ele>
        <time>2014-09-19T09:51:50Z</time>
      </trkpt>
      <trkpt lat="50.52757" lon="1.59458">
        <ele>4.9</ele>
        <time>2014-09-19T09:51:55Z</time>
      </trkpt>
      <trkpt lat="50.5276" lon="1.59469">
        <ele>6</ele>
        <time>2014-09-19T09:52:00Z</time>
      </trkpt>
      <trkpt lat="50.52761" lon="1.59481">
        <ele>6.1</ele>
        <time>2014-09-19T09:52:06Z</time>
      </trkpt>
      <trkpt lat="50.52763" lon="1.59493">
        <ele>6.7</ele>
        <time>2014-09-19T09:52:11Z</time>
      </trkpt>
      <trkpt lat="50.52766" lon="1.59505">
        <ele>6.1</ele>
        <time>2014-09-19T09:52:16Z</time>
      </trkpt>
      <trkpt lat="50.52771" lon="1.59516">
        <ele>6.1</ele>
        <time>2014-09-19T09:52:22Z</time>
      </trkpt>
      <trkpt lat="50.52777" lon="1.59525">
        <ele>6.7</ele>
        <time>2014-09-19T09:52:29Z</time>
      </trkpt>
      <trkpt lat="50.52784" lon="1.59533">
        <ele>6.7</ele>
        <time>2014-09-19T09:52:36Z</time>
      </trkpt>
      <trkpt lat="50.52789" lon="1.59543">
        <ele>6.7</ele>
        <time>2014-09-19T09:52:43Z</time>
      </trkpt>
      <trkpt lat="50.5279" lon="1.59545">
        <ele>6.3</ele>
        <time>2014-09-19T09:52:44Z</time>
      </trkpt>
      <trkpt lat="50.52797" lon="1.59565">
        <ele>6.6</ele>
        <time>2014-09-19T09:52:54Z</time>
      </trkpt>
      <trkpt lat="50.52802" lon="1.59576">
        <ele>6.6</ele>
        <time>2014-09-19T09:53:00Z</time>
      </trkpt>
      <trkpt lat="50.5281" lon="1.59581">
        <ele>6.7</ele>
        <time>2014-09-19T09:53:07Z</time>
      </trkpt>
      <trkpt lat="50.52819" lon="1.59579">
        <ele>6</ele>
        <time>2014-09-19T09:53:13Z</time>
      </trkpt>
      <trkpt lat="50.52827" lon="1.59574">
        <ele>5.4</ele>
        <time>2014-09-19T09:53:19Z</time>
      </trkpt>
      <trkpt lat="50.52835" lon="1.59572">
        <ele>5.8</ele>
        <time>2014-09-19T09:53:26Z</time>
      </trkpt>
      <trkpt lat="50.52843" lon="1.59567">
        <ele>7.3</ele>
        <time>2014-09-19T09:53:33Z</time>
      </trkpt>
      <trkpt lat="50.5285" lon="1.59559">
        <ele>6.8</ele>
        <time>2014-09-19T09:53:40Z</time>
      </trkpt>
      <trkpt lat="50.52858" lon="1.59551">
        <ele>5.6</ele>
        <time>2014-09-19T09:53:46Z</time>
      </trkpt>
      <trkpt lat="50.52859" lon="1.5955">
        <ele>5.8</ele>
        <time>2014-09-19T09:53:47Z</time>
      </trkpt>
      <trkpt lat="50.52873" lon="1.59539">
        <ele>4.6</ele>
        <time>2014-09-19T09:53:58Z</time>
      </trkpt>
      <trkpt lat="50.5288" lon="1.59533">
        <ele>5.9</ele>
        <time>2014-09-19T09:54:04Z</time>
      </trkpt>
      <trkpt lat="50.52887" lon="1.59527">
        <ele>6.3</ele>
        <time>2014-09-19T09:54:10Z</time>
      </trkpt>
      <trkpt lat="50.52895" lon="1.59521">
        <ele>6.6</ele>
        <time>2014-09-19T09:54:16Z</time>
      </trkpt>
      <trkpt lat="50.52903" lon="1.59516">
        <ele>6.4</ele>
        <time>2014-09-19T09:54:22Z</time>
      </trkpt>
      <trkpt lat="50.5291" lon="1.59511">
        <ele>6.6</ele>
        <time>2014-09-19T09:54:28Z</time>
      </trkpt>
      <trkpt lat="50.52917" lon="1.59505">
        <ele>6.1</ele>
        <time>2014-09-19T09:54:34Z</time>
      </trkpt>
      <trkpt lat="50.52925" lon="1.59499">
        <ele>6.6</ele>
        <time>2014-09-19T09:54:40Z</time>
      </trkpt>
      <trkpt lat="50.52933" lon="1.59493">
        <ele>5.1</ele>
        <time>2014-09-19T09:54:46Z</time>
      </trkpt>
      <trkpt lat="50.5294" lon="1.59487">
        <ele>5.6</ele>
        <time>2014-09-19T09:54:52Z</time>
      </trkpt>
      <trkpt lat="50.52941" lon="1.59485">
        <ele>5.7</ele>
        <time>2014-09-19T09:54:53Z</time>
      </trkpt>
      <trkpt lat="50.52954" lon="1.59475">
        <ele>6.5</ele>
        <time>2014-09-19T09:55:04Z</time>
      </trkpt>
      <trkpt lat="50.52961" lon="1.59471">
        <ele>6.3</ele>
        <time>2014-09-19T09:55:10Z</time>
      </trkpt>
      <trkpt lat="50.52969" lon="1.59465">
        <ele>6.1</ele>
        <time>2014-09-19T09:55:16Z</time>
      </trkpt>
      <trkpt lat="50.52976" lon="1.5946">
        <ele>6.1</ele>
        <time>2014-09-19T09:55:22Z</time>
      </trkpt>
      <trkpt lat="50.52983" lon="1.59454">
        <ele>6</ele>
        <time>2014-09-19T09:55:28Z</time>
      </trkpt>
      <trkpt lat="50.52991" lon="1.59449">
        <ele>6.1</ele>
        <time>2014-09-19T09:55:34Z</time>
      </trkpt>
      <trkpt lat="50.52998" lon="1.59445">
        <ele>6.1</ele>
        <time>2014-09-19T09:55:40Z</time>
      </trkpt>
      <trkpt lat="50.53006" lon="1.5944">
        <ele>6.4</ele>
        <time>2014-09-19T09:55:46Z</time>
      </trkpt>
      <trkpt lat="50.53014" lon="1.59436">
        <ele>6.6</ele>
        <time>2014-09-19T09:55:52Z</time>
      </trkpt>
      <trkpt lat="50.53022" lon="1.59432">
        <ele>6.1</ele>
        <time>2014-09-19T09:55:58Z</time>
      </trkpt>
      <trkpt lat="50.53024" lon="1.59431">
        <ele>6.3</ele>
        <time>2014-09-19T09:55:59Z</time>
      </trkpt>
      <trkpt lat="50.53038" lon="1.59425">
        <ele>6.7</ele>
        <time>2014-09-19T09:56:10Z</time>
      </trkpt>
      <trkpt lat="50.53046" lon="1.59421">
        <ele>6.1</ele>
        <time>2014-09-19T09:56:16Z</time>
      </trkpt>
      <trkpt lat="50.53054" lon="1.59416">
        <ele>5.4</ele>
        <time>2014-09-19T09:56:22Z</time>
      </trkpt>
      <trkpt lat="50.53061" lon="1.59411">
        <ele>6.2</ele>
        <time>2014-09-19T09:56:28Z</time>
      </trkpt>
      <trkpt lat="50.53069" lon="1.59406">
        <ele>6.2</ele>
        <time>2014-09-19T09:56:35Z</time>
      </trkpt>
      <trkpt lat="50.53076" lon="1.59401">
        <ele>6.1</ele>
        <time>2014-09-19T09:56:41Z</time>
      </trkpt>
      <trkpt lat="50.53083" lon="1.59395">
        <ele>6.3</ele>
        <time>2014-09-19T09:56:47Z</time>
      </trkpt>
      <trkpt lat="50.5309" lon="1.5939">
        <ele>6.4</ele>
        <time>2014-09-19T09:56:53Z</time>
      </trkpt>
      <trkpt lat="50.53099" lon="1.59385">
        <ele>5.7</ele>
        <time>2014-09-19T09:57:00Z</time>
      </trkpt>
      <trkpt lat="50.531" lon="1.59385">
        <ele>5.6</ele>
        <time>2014-09-19T09:57:01Z</time>
      </trkpt>
      <trkpt lat="50.53113" lon="1.59373">
        <ele>5.6</ele>
        <time>2014-09-19T09:57:13Z</time>
      </trkpt>
      <trkpt lat="50.53121" lon="1.59368">
        <ele>5.7</ele>
        <time>2014-09-19T09:57:20Z</time>
      </trkpt>
      <trkpt lat="50.5313" lon="1.59363">
        <ele>5.6</ele>
        <time>2014-09-19T09:57:27Z</time>
      </trkpt>
      <trkpt lat="50.53137" lon="1.59357">
        <ele>5.5</ele>
        <time>2014-09-19T09:57:34Z</time>
      </trkpt>
      <trkpt lat="50.53145" lon="1.59351">
        <ele>5.3</ele>
        <time>2014-09-19T09:57:41Z</time>
      </trkpt>
      <trkpt lat="50.53153" lon="1.59345">
        <ele>4.5</ele>
        <time>2014-09-19T09:57:48Z</time>
      </trkpt>
      <trkpt lat="50.5316" lon="1.59338">
        <ele>5.6</ele>
        <time>2014-09-19T09:57:54Z</time>
      </trkpt>
      <trkpt lat="50.53167" lon="1.59333">
        <ele>5.3</ele>
        <time>2014-09-19T09:58:00Z</time>
      </trkpt>
      <trkpt lat="50.53174" lon="1.59327">
        <ele>6.7</ele>
        <time>2014-09-19T09:58:06Z</time>
      </trkpt>
      <trkpt lat="50.53175" lon="1.59326">
        <ele>6.7</ele>
        <time>2014-09-19T09:58:07Z</time>
      </trkpt>
      <trkpt lat="50.53188" lon="1.59316">
        <ele>5.7</ele>
        <time>2014-09-19T09:58:18Z</time>
      </trkpt>
      <trkpt lat="50.53195" lon="1.59311">
        <ele>6.7</ele>
        <time>2014-09-19T09:58:24Z</time>
      </trkpt>
      <trkpt lat="50.53202" lon="1.59306">
        <ele>6.4</ele>
        <time>2014-09-19T09:58:30Z</time>
      </trkpt>
      <trkpt lat="50.5321" lon="1.59299">
        <ele>6.2</ele>
        <time>2014-09-19T09:58:37Z</time>
      </trkpt>
      <trkpt lat="50.53217" lon="1.59293">
        <ele>6.3</ele>
        <time>2014-09-19T09:58:43Z</time>
      </trkpt>
      <trkpt lat="50.53224" lon="1.59286">
        <ele>6.3</ele>
        <time>2014-09-19T09:58:49Z</time>
      </trkpt>
      <trkpt lat="50.5323" lon="1.59279">
        <ele>5.5</ele>
        <time>2014-09-19T09:58:55Z</time>
      </trkpt>
      <trkpt lat="50.53238" lon="1.59273">
        <ele>5.4</ele>
        <time>2014-09-19T09:59:01Z</time>
      </trkpt>
      <trkpt lat="50.53245" lon="1.59268">
        <ele>6.4</ele>
        <time>2014-09-19T09:59:07Z</time>
      </trkpt>
      <trkpt lat="50.53246" lon="1.59267">
        <ele>6.6</ele>
        <time>2014-09-19T09:59:08Z</time>
      </trkpt>
      <trkpt lat="50.53259" lon="1.59258">
        <ele>5.6</ele>
        <time>2014-09-19T09:59:19Z</time>
      </trkpt>
      <trkpt lat="50.53267" lon="1.59251">
        <ele>6.2</ele>
        <time>2014-09-19T09:59:26Z</time>
      </trkpt>
      <trkpt lat="50.53274" lon="1.59246">
        <ele>6.4</ele>
        <time>2014-09-19T09:59:32Z</time>
      </trkpt>
      <trkpt lat="50.53282" lon="1.5924">
        <ele>6.7</ele>
        <time>2014-09-19T09:59:39Z</time>
      </trkpt>
      <trkpt lat="50.5329" lon="1.59232">
        <ele>6.8</ele>
        <time>2014-09-19T09:59:46Z</time>
      </trkpt>
      <trkpt lat="50.53296" lon="1.59226">
        <ele>4.5</ele>
        <time>2014-09-19T09:59:52Z</time>
      </trkpt>
      <trkpt lat="50.53303" lon="1.5922">
        <ele>5.8</ele>
        <time>2014-09-19T09:59:58Z</time>
      </trkpt>
      <trkpt lat="50.53311" lon="1.59214">
        <ele>-1.7</ele>
        <time>2014-09-19T10:00:04Z</time>
      </trkpt>
      <trkpt lat="50.53318" lon="1.59208">
        <ele>5.4</ele>
        <time>2014-09-19T10:00:10Z</time>
      </trkpt>
      <trkpt lat="50.5332" lon="1.59208">
        <ele>6.2</ele>
        <time>2014-09-19T10:00:11Z</time>
      </trkpt>
      <trkpt lat="50.53334" lon="1.59202">
        <ele>7</ele>
        <time>2014-09-19T10:00:21Z</time>
      </trkpt>
      <trkpt lat="50.53341" lon="1.59196">
        <ele>6.2</ele>
        <time>2014-09-19T10:00:27Z</time>
      </trkpt>
      <trkpt lat="50.53348" lon="1.59189">
        <ele>5.9</ele>
        <time>2014-09-19T10:00:33Z</time>
      </trkpt>
      <trkpt lat="50.53356" lon="1.59182">
        <ele>6.2</ele>
        <time>2014-09-19T10:00:40Z</time>
      </trkpt>
      <trkpt lat="50.53363" lon="1.59175">
        <ele>6.8</ele>
        <time>2014-09-19T10:00:47Z</time>
      </trkpt>
      <trkpt lat="50.5337" lon="1.5917">
        <ele>2</ele>
        <time>2014-09-19T10:00:53Z</time>
      </trkpt>
      <trkpt lat="50.53378" lon="1.59166">
        <ele>6.8</ele>
        <time>2014-09-19T10:00:59Z</time>
      </trkpt>
      <trkpt lat="50.53387" lon="1.59164">
        <ele>-2.9</ele>
        <time>2014-09-19T10:01:05Z</time>
      </trkpt>
      <trkpt lat="50.53395" lon="1.59164">
        <ele>2.9</ele>
        <time>2014-09-19T10:01:11Z</time>
      </trkpt>
      <trkpt lat="50.53396" lon="1.59164">
        <ele>2.2</ele>
        <time>2014-09-19T10:01:12Z</time>
      </trkpt>
      <trkpt lat="50.5341" lon="1.59171">
        <ele>6.5</ele>
        <time>2014-09-19T10:01:24Z</time>
      </trkpt>
      <trkpt lat="50.53417" lon="1.59177">
        <ele>5.7</ele>
        <time>2014-09-19T10:01:29Z</time>
      </trkpt>
      <trkpt lat="50.53425" lon="1.59183">
        <ele>5.1</ele>
        <time>2014-09-19T10:01:35Z</time>
      </trkpt>
      <trkpt lat="50.53432" lon="1.59189">
        <ele>5.8</ele>
        <time>2014-09-19T10:01:41Z</time>
      </trkpt>
      <trkpt lat="50.53439" lon="1.59196">
        <ele>5.1</ele>
        <time>2014-09-19T10:01:47Z</time>
      </trkpt>
      <trkpt lat="50.53445" lon="1.59205">
        <ele>6.1</ele>
        <time>2014-09-19T10:01:53Z</time>
      </trkpt>
      <trkpt lat="50.53452" lon="1.59213">
        <ele>5.4</ele>
        <time>2014-09-19T10:01:59Z</time>
      </trkpt>
      <trkpt lat="50.53459" lon="1.59219">
        <ele>5.8</ele>
        <time>2014-09-19T10:02:05Z</time>
      </trkpt>
      <trkpt lat="50.53465" lon="1.59226">
        <ele>5</ele>
        <time>2014-09-19T10:02:11Z</time>
      </trkpt>
      <trkpt lat="50.53472" lon="1.59232">
        <ele>6.3</ele>
        <time>2014-09-19T10:02:17Z</time>
      </trkpt>
      <trkpt lat="50.53473" lon="1.59233">
        <ele>6.4</ele>
        <time>2014-09-19T10:02:18Z</time>
      </trkpt>
      <trkpt lat="50.53486" lon="1.59245">
        <ele>5.1</ele>
        <time>2014-09-19T10:02:29Z</time>
      </trkpt>
      <trkpt lat="50.53493" lon="1.59253">
        <ele>5</ele>
        <time>2014-09-19T10:02:35Z</time>
      </trkpt>
      <trkpt lat="50.535" lon="1.5926">
        <ele>6.1</ele>
        <time>2014-09-19T10:02:41Z</time>
      </trkpt>
      <trkpt lat="50.53507" lon="1.59267">
        <ele>6.2</ele>
        <time>2014-09-19T10:02:47Z</time>
      </trkpt>
      <trkpt lat="50.53514" lon="1.59273">
        <ele>5.7</ele>
        <time>2014-09-19T10:02:53Z</time>
      </trkpt>
      <trkpt lat="50.53521" lon="1.59279">
        <ele>6.1</ele>
        <time>2014-09-19T10:03:00Z</time>
      </trkpt>
      <trkpt lat="50.53528" lon="1.59288">
        <ele>5.5</ele>
        <time>2014-09-19T10:03:07Z</time>
      </trkpt>
      <trkpt lat="50.53534" lon="1.59294">
        <ele>5.2</ele>
        <time>2014-09-19T10:03:13Z</time>
      </trkpt>
      <trkpt lat="50.53541" lon="1.59301">
        <ele>6.6</ele>
        <time>2014-09-19T10:03:19Z</time>
      </trkpt>
      <trkpt lat="50.53542" lon="1.59302">
        <ele>6.7</ele>
        <time>2014-09-19T10:03:20Z</time>
      </trkpt>
      <trkpt lat="50.53554" lon="1.59317">
        <ele>7</ele>
        <time>2014-09-19T10:03:33Z</time>
      </trkpt>
      <trkpt lat="50.5356" lon="1.59326">
        <ele>5.2</ele>
        <time>2014-09-19T10:03:39Z</time>
      </trkpt>
      <trkpt lat="50.53566" lon="1.59336">
        <ele>6.2</ele>
        <time>2014-09-19T10:03:45Z</time>
      </trkpt>
      <trkpt lat="50.53572" lon="1.59342">
        <ele>6.1</ele>
        <time>2014-09-19T10:03:51Z</time>
      </trkpt>
      <trkpt lat="50.5358" lon="1.59346">
        <ele>6.5</ele>
        <time>2014-09-19T10:03:57Z</time>
      </trkpt>
      <trkpt lat="50.53588" lon="1.59347">
        <ele>5.8</ele>
        <time>2014-09-19T10:04:03Z</time>
      </trkpt>
      <trkpt lat="50.53597" lon="1.59345">
        <ele>6.3</ele>
        <time>2014-09-19T10:04:10Z</time>
      </trkpt>
      <trkpt lat="50.53604" lon="1.59338">
        <ele>6.8</ele>
        <time>2014-09-19T10:04:17Z</time>
      </trkpt>
      <trkpt lat="50.53608" lon="1.59327">
        <ele>6.9</ele>
        <time>2014-09-19T10:04:24Z</time>
      </trkpt>
      <trkpt lat="50.53609" lon="1.59325">
        <ele>6.9</ele>
        <time>2014-09-19T10:04:25Z</time>
      </trkpt>
      <trkpt lat="50.53616" lon="1.59303">
        <ele>6.5</ele>
        <time>2014-09-19T10:04:36Z</time>
      </trkpt>
      <trkpt lat="50.5362" lon="1.59291">
        <ele>6.5</ele>
        <time>2014-09-19T10:04:42Z</time>
      </trkpt>
      <trkpt lat="50.53625" lon="1.5928">
        <ele>6.9</ele>
        <time>2014-09-19T10:04:49Z</time>
      </trkpt>
      <trkpt lat="50.53629" lon="1.59269">
        <ele>7.6</ele>
        <time>2014-09-19T10:04:55Z</time>
      </trkpt>
      <trkpt lat="50.53633" lon="1.59259">
        <ele>6.8</ele>
        <time>2014-09-19T10:05:01Z</time>
      </trkpt>
      <trkpt lat="50.53638" lon="1.59248">
        <ele>7.1</ele>
        <time>2014-09-19T10:05:07Z</time>
      </trkpt>
      <trkpt lat="50.53645" lon="1.59241">
        <ele>6.1</ele>
        <time>2014-09-19T10:05:13Z</time>
      </trkpt>
      <trkpt lat="50.53654" lon="1.59241">
        <ele>6.6</ele>
        <time>2014-09-19T10:05:19Z</time>
      </trkpt>
      <trkpt lat="50.53662" lon="1.59244">
        <ele>5.8</ele>
        <time>2014-09-19T10:05:25Z</time>
      </trkpt>
      <trkpt lat="50.53663" lon="1.59244">
        <ele>6.1</ele>
        <time>2014-09-19T10:05:26Z</time>
      </trkpt>
      <trkpt lat="50.53678" lon="1.59248">
        <ele>6.7</ele>
        <time>2014-09-19T10:05:38Z</time>
      </trkpt>
      <trkpt lat="50.53686" lon="1.59251">
        <ele>6.9</ele>
        <time>2014-09-19T10:05:44Z</time>
      </trkpt>
      <trkpt lat="50.53694" lon="1.59253">
        <ele>6.7</ele>
        <time>2014-09-19T10:05:50Z</time>
      </trkpt>
      <trkpt lat="50.53702" lon="1.59254">
        <ele>5.8</ele>
        <time>2014-09-19T10:05:56Z</time>
      </trkpt>
      <trkpt lat="50.5371" lon="1.59255">
        <ele>6.6</ele>
        <time>2014-09-19T10:06:02Z</time>
      </trkpt>
      <trkpt lat="50.53718" lon="1.59251">
        <ele>6.7</ele>
        <time>2014-09-19T10:06:09Z</time>
      </trkpt>
      <trkpt lat="50.53722" lon="1.5924">
        <ele>7.1</ele>
        <time>2014-09-19T10:06:16Z</time>
      </trkpt>
      <trkpt lat="50.53725" lon="1.59227">
        <ele>7.1</ele>
        <time>2014-09-19T10:06:23Z</time>
      </trkpt>
      <trkpt lat="50.5373" lon="1.59216">
        <ele>6.8</ele>
        <time>2014-09-19T10:06:31Z</time>
      </trkpt>
      <trkpt lat="50.5373" lon="1.59215">
        <ele>6.6</ele>
        <time>2014-09-19T10:06:32Z</time>
      </trkpt>
      <trkpt lat="50.5374" lon="1.59197">
        <ele>7.6</ele>
        <time>2014-09-19T10:06:45Z</time>
      </trkpt>
      <trkpt lat="50.53746" lon="1.59186">
        <ele>7.5</ele>
        <time>2014-09-19T10:06:52Z</time>
      </trkpt>
      <trkpt lat="50.53751" lon="1.59177">
        <ele>8.1</ele>
        <time>2014-09-19T10:06:59Z</time>
      </trkpt>
      <trkpt lat="50.53757" lon="1.59166">
        <ele>8.1</ele>
        <time>2014-09-19T10:07:06Z</time>
      </trkpt>
      <trkpt lat="50.53763" lon="1.59158">
        <ele>8.3</ele>
        <time>2014-09-19T10:07:12Z</time>
      </trkpt>
      <trkpt lat="50.53769" lon="1.5915">
        <ele>8.3</ele>
        <time>2014-09-19T10:07:18Z</time>
      </trkpt>
      <trkpt lat="50.53775" lon="1.59141">
        <ele>5.6</ele>
        <time>2014-09-19T10:07:25Z</time>
      </trkpt>
      <trkpt lat="50.53784" lon="1.59138">
        <ele>8.3</ele>
        <time>2014-09-19T10:07:32Z</time>
      </trkpt>
      <trkpt lat="50.53785" lon="1.59138">
        <ele>8.4</ele>
        <time>2014-09-19T10:07:33Z</time>
      </trkpt>
      <trkpt lat="50.538" lon="1.59128">
        <ele>7.6</ele>
        <time>2014-09-19T10:07:46Z</time>
      </trkpt>
      <trkpt lat="50.53806" lon="1.59121">
        <ele>6.9</ele>
        <time>2014-09-19T10:07:53Z</time>
      </trkpt>
      <trkpt lat="50.53815" lon="1.59116">
        <ele>7.4</ele>
        <time>2014-09-19T10:08:04Z</time>
      </trkpt>
      <trkpt lat="50.5382" lon="1.59106">
        <ele>6.9</ele>
        <time>2014-09-19T10:08:14Z</time>
      </trkpt>
      <trkpt lat="50.53826" lon="1.59095">
        <ele>8.3</ele>
        <time>2014-09-19T10:08:22Z</time>
      </trkpt>
      <trkpt lat="50.53829" lon="1.59083">
        <ele>7.3</ele>
        <time>2014-09-19T10:08:29Z</time>
      </trkpt>
      <trkpt lat="50.53835" lon="1.59072">
        <ele>8.6</ele>
        <time>2014-09-19T10:08:36Z</time>
      </trkpt>
      <trkpt lat="50.53836" lon="1.59071">
        <ele>8.8</ele>
        <time>2014-09-19T10:08:37Z</time>
      </trkpt>
      <trkpt lat="50.53848" lon="1.59055">
        <ele>6.3</ele>
        <time>2014-09-19T10:08:51Z</time>
      </trkpt>
      <trkpt lat="50.53856" lon="1.59049">
        <ele>7.5</ele>
        <time>2014-09-19T10:09:00Z</time>
      </trkpt>
      <trkpt lat="50.53851" lon="1.59038">
        <ele>7.7</ele>
        <time>2014-09-19T10:10:08Z</time>
      </trkpt>
      <trkpt lat="50.53851" lon="1.59037">
        <ele>7.5</ele>
        <time>2014-09-19T10:10:09Z</time>
      </trkpt>
      <trkpt lat="50.53859" lon="1.59014">
        <ele>8.1</ele>
        <time>2014-09-19T10:10:24Z</time>
      </trkpt>
      <trkpt lat="50.53861" lon="1.59001">
        <ele>7.3</ele>
        <time>2014-09-19T10:10:32Z</time>
      </trkpt>
      <trkpt lat="50.53862" lon="1.58988">
        <ele>8.7</ele>
        <time>2014-09-19T10:10:40Z</time>
      </trkpt>
      <trkpt lat="50.53863" lon="1.58975">
        <ele>7.9</ele>
        <time>2014-09-19T10:10:59Z</time>
      </trkpt>
      <trkpt lat="50.53863" lon="1.58962">
        <ele>8</ele>
        <time>2014-09-19T10:11:07Z</time>
      </trkpt>
      <trkpt lat="50.53863" lon="1.58948">
        <ele>7.9</ele>
        <time>2014-09-19T10:11:15Z</time>
      </trkpt>
      <trkpt lat="50.53863" lon="1.58946">
        <ele>7.8</ele>
        <time>2014-09-19T10:11:16Z</time>
      </trkpt>
      <trkpt lat="50.53862" lon="1.58921">
        <ele>8.3</ele>
        <time>2014-09-19T10:11:47Z</time>
      </trkpt>
      <trkpt lat="50.53856" lon="1.58912">
        <ele>8.9</ele>
        <time>2014-09-19T10:11:55Z</time>
      </trkpt>
      <trkpt lat="50.5385" lon="1.58903">
        <ele>8.9</ele>
        <time>2014-09-19T10:12:02Z</time>
      </trkpt>
      <trkpt lat="50.53844" lon="1.58892">
        <ele>9.2</ele>
        <time>2014-09-19T10:12:09Z</time>
      </trkpt>
      <trkpt lat="50.53837" lon="1.58883">
        <ele>8.1</ele>
        <time>2014-09-19T10:12:16Z</time>
      </trkpt>
      <trkpt lat="50.53836" lon="1.58881">
        <ele>8</ele>
        <time>2014-09-19T10:12:17Z</time>
      </trkpt>
      <trkpt lat="50.53825" lon="1.58864">
        <ele>9.6</ele>
        <time>2014-09-19T10:12:30Z</time>
      </trkpt>
      <trkpt lat="50.53818" lon="1.58855">
        <ele>9.3</ele>
        <time>2014-09-19T10:12:37Z</time>
      </trkpt>
      <trkpt lat="50.53813" lon="1.58844">
        <ele>7.7</ele>
        <time>2014-09-19T10:12:45Z</time>
      </trkpt>
      <trkpt lat="50.53817" lon="1.58834">
        <ele>8.9</ele>
        <time>2014-09-19T10:12:52Z</time>
      </trkpt>
      <trkpt lat="50.53825" lon="1.58828">
        <ele>8.6</ele>
        <time>2014-09-19T10:12:59Z</time>
      </trkpt>
      <trkpt lat="50.53834" lon="1.58826">
        <ele>10.1</ele>
        <time>2014-09-19T10:13:06Z</time>
      </trkpt>
      <trkpt lat="50.53843" lon="1.58826">
        <ele>9.8</ele>
        <time>2014-09-19T10:13:14Z</time>
      </trkpt>
      <trkpt lat="50.5385" lon="1.58825">
        <ele>10.7</ele>
        <time>2014-09-19T10:13:21Z</time>
      </trkpt>
      <trkpt lat="50.53852" lon="1.58826">
        <ele>10.8</ele>
        <time>2014-09-19T10:13:22Z</time>
      </trkpt>
      <trkpt lat="50.53867" lon="1.58824">
        <ele>9.9</ele>
        <time>2014-09-19T10:13:35Z</time>
      </trkpt>
      <trkpt lat="50.53875" lon="1.5882">
        <ele>11.2</ele>
        <time>2014-09-19T10:13:43Z</time>
      </trkpt>
      <trkpt lat="50.53883" lon="1.58815">
        <ele>11.3</ele>
        <time>2014-09-19T10:13:50Z</time>
      </trkpt>
      <trkpt lat="50.53891" lon="1.5881">
        <ele>11.8</ele>
        <time>2014-09-19T10:13:57Z</time>
      </trkpt>
      <trkpt lat="50.53896" lon="1.588">
        <ele>13</ele>
        <time>2014-09-19T10:14:28Z</time>
      </trkpt>
      <trkpt lat="50.53897" lon="1.58799">
        <ele>12.9</ele>
        <time>2014-09-19T10:14:29Z</time>
      </trkpt>
      <trkpt lat="50.53906" lon="1.58803">
        <ele>10.6</ele>
        <time>2014-09-19T10:25:02Z</time>
      </trkpt>
      <trkpt lat="50.53919" lon="1.58806">
        <ele>8.2</ele>
        <time>2014-09-19T10:25:18Z</time>
      </trkpt>
      <trkpt lat="50.53924" lon="1.58817">
        <ele>10.7</ele>
        <time>2014-09-19T10:25:27Z</time>
      </trkpt>
      <trkpt lat="50.53929" lon="1.58828">
        <ele>8</ele>
        <time>2014-09-19T10:25:36Z</time>
      </trkpt>
      <trkpt lat="50.53938" lon="1.58831">
        <ele>6</ele>
        <time>2014-09-19T10:25:45Z</time>
      </trkpt>
      <trkpt lat="50.53945" lon="1.58821">
        <ele>5.8</ele>
        <time>2014-09-19T10:25:53Z</time>
      </trkpt>
      <trkpt lat="50.5395" lon="1.58812">
        <ele>5.6</ele>
        <time>2014-09-19T10:26:00Z</time>
      </trkpt>
      <trkpt lat="50.53955" lon="1.58802">
        <ele>6</ele>
        <time>2014-09-19T10:26:07Z</time>
      </trkpt>
      <trkpt lat="50.53956" lon="1.58801">
        <ele>5.8</ele>
        <time>2014-09-19T10:26:08Z</time>
      </trkpt>
      <trkpt lat="50.53966" lon="1.58782">
        <ele>4.8</ele>
        <time>2014-09-19T10:26:23Z</time>
      </trkpt>
      <trkpt lat="50.53972" lon="1.58774">
        <ele>5.5</ele>
        <time>2014-09-19T10:26:30Z</time>
      </trkpt>
      <trkpt lat="50.53979" lon="1.58765">
        <ele>5.7</ele>
        <time>2014-09-19T10:26:38Z</time>
      </trkpt>
      <trkpt lat="50.53985" lon="1.58755">
        <ele>4.4</ele>
        <time>2014-09-19T10:26:46Z</time>
      </trkpt>
      <trkpt lat="50.53987" lon="1.58742">
        <ele>4.6</ele>
        <time>2014-09-19T10:26:54Z</time>
      </trkpt>
      <trkpt lat="50.53987" lon="1.58728">
        <ele>6.6</ele>
        <time>2014-09-19T10:27:03Z</time>
      </trkpt>
      <trkpt lat="50.53984" lon="1.58717">
        <ele>6.2</ele>
        <time>2014-09-19T10:27:12Z</time>
      </trkpt>
      <trkpt lat="50.53983" lon="1.58716">
        <ele>6.2</ele>
        <time>2014-09-19T10:27:13Z</time>
      </trkpt>
      <trkpt lat="50.53976" lon="1.58691">
        <ele>6.6</ele>
        <time>2014-09-19T10:27:32Z</time>
      </trkpt>
      <trkpt lat="50.53977" lon="1.58678">
        <ele>7.1</ele>
        <time>2014-09-19T10:28:05Z</time>
      </trkpt>
      <trkpt lat="50.53975" lon="1.58664">
        <ele>8</ele>
        <time>2014-09-19T10:28:15Z</time>
      </trkpt>
      <trkpt lat="50.53974" lon="1.58663">
        <ele>7.4</ele>
        <time>2014-09-19T10:28:16Z</time>
      </trkpt>
      <trkpt lat="50.5397" lon="1.58639">
        <ele>5.8</ele>
        <time>2014-09-19T10:28:32Z</time>
      </trkpt>
      <trkpt lat="50.53964" lon="1.58631">
        <ele>5.1</ele>
        <time>2014-09-19T10:28:41Z</time>
      </trkpt>
      <trkpt lat="50.53958" lon="1.58622">
        <ele>6.4</ele>
        <time>2014-09-19T10:28:50Z</time>
      </trkpt>
      <trkpt lat="50.53951" lon="1.58613">
        <ele>6.1</ele>
        <time>2014-09-19T10:28:59Z</time>
      </trkpt>
      <trkpt lat="50.53944" lon="1.58606">
        <ele>6.2</ele>
        <time>2014-09-19T10:29:09Z</time>
      </trkpt>
      <trkpt lat="50.53936" lon="1.58606">
        <ele>7.6</ele>
        <time>2014-09-19T10:29:20Z</time>
      </trkpt>
      <trkpt lat="50.53935" lon="1.58607">
        <ele>7.9</ele>
        <time>2014-09-19T10:29:21Z</time>
      </trkpt>
      <trkpt lat="50.53933" lon="1.58631">
        <ele>6</ele>
        <time>2014-09-19T10:29:38Z</time>
      </trkpt>
      <trkpt lat="50.53931" lon="1.58618">
        <ele>5.6</ele>
        <time>2014-09-19T10:31:13Z</time>
      </trkpt>
      <trkpt lat="50.53931" lon="1.58617">
        <ele>3.6</ele>
        <time>2014-09-19T10:31:14Z</time>
      </trkpt>
      <trkpt lat="50.53932" lon="1.58592">
        <ele>6.7</ele>
        <time>2014-09-19T10:31:30Z</time>
      </trkpt>
      <trkpt lat="50.53931" lon="1.5858">
        <ele>5.1</ele>
        <time>2014-09-19T10:31:38Z</time>
      </trkpt>
      <trkpt lat="50.5393" lon="1.58566">
        <ele>4.7</ele>
        <time>2014-09-19T10:31:46Z</time>
      </trkpt>
      <trkpt lat="50.5393" lon="1.58553">
        <ele>4.1</ele>
        <time>2014-09-19T10:31:54Z</time>
      </trkpt>
      <trkpt lat="50.53928" lon="1.58541">
        <ele>4.8</ele>
        <time>2014-09-19T10:32:01Z</time>
      </trkpt>
      <trkpt lat="50.53925" lon="1.58528">
        <ele>4.5</ele>
        <time>2014-09-19T10:32:09Z</time>
      </trkpt>
      <trkpt lat="50.5392" lon="1.58517">
        <ele>5.2</ele>
        <time>2014-09-19T10:32:16Z</time>
      </trkpt>
      <trkpt lat="50.53919" lon="1.58515">
        <ele>5.2</ele>
        <time>2014-09-19T10:32:17Z</time>
      </trkpt>
      <trkpt lat="50.53908" lon="1.58498">
        <ele>4.8</ele>
        <time>2014-09-19T10:32:32Z</time>
      </trkpt>
      <trkpt lat="50.53901" lon="1.58491">
        <ele>4.7</ele>
        <time>2014-09-19T10:32:40Z</time>
      </trkpt>
      <trkpt lat="50.53894" lon="1.58482">
        <ele>5.3</ele>
        <time>2014-09-19T10:32:48Z</time>
      </trkpt>
      <trkpt lat="50.53887" lon="1.58474">
        <ele>4.5</ele>
        <time>2014-09-19T10:32:56Z</time>
      </trkpt>
      <trkpt lat="50.53879" lon="1.58468">
        <ele>3.9</ele>
        <time>2014-09-19T10:33:03Z</time>
      </trkpt>
      <trkpt lat="50.53872" lon="1.58462">
        <ele>4.7</ele>
        <time>2014-09-19T10:33:10Z</time>
      </trkpt>
      <trkpt lat="50.53865" lon="1.58456">
        <ele>3.8</ele>
        <time>2014-09-19T10:33:17Z</time>
      </trkpt>
      <trkpt lat="50.53864" lon="1.58454">
        <ele>3.8</ele>
        <time>2014-09-19T10:33:18Z</time>
      </trkpt>
      <trkpt lat="50.53851" lon="1.58444">
        <ele>4</ele>
        <time>2014-09-19T10:33:31Z</time>
      </trkpt>
      <trkpt lat="50.53844" lon="1.58439">
        <ele>4.7</ele>
        <time>2014-09-19T10:33:38Z</time>
      </trkpt>
      <trkpt lat="50.53836" lon="1.58433">
        <ele>4</ele>
        <time>2014-09-19T10:33:45Z</time>
      </trkpt>
      <trkpt lat="50.53829" lon="1.58427">
        <ele>4.5</ele>
        <time>2014-09-19T10:33:53Z</time>
      </trkpt>
      <trkpt lat="50.53821" lon="1.58421">
        <ele>4</ele>
        <time>2014-09-19T10:34:01Z</time>
      </trkpt>
      <trkpt lat="50.53815" lon="1.58413">
        <ele>4.6</ele>
        <time>2014-09-19T10:34:08Z</time>
      </trkpt>
      <trkpt lat="50.5381" lon="1.58402">
        <ele>5.3</ele>
        <time>2014-09-19T10:34:16Z</time>
      </trkpt>
      <trkpt lat="50.53808" lon="1.58389">
        <ele>3.4</ele>
        <time>2014-09-19T10:34:24Z</time>
      </trkpt>
      <trkpt lat="50.53807" lon="1.58388">
        <ele>3.2</ele>
        <time>2014-09-19T10:34:25Z</time>
      </trkpt>
      <trkpt lat="50.53799" lon="1.58366">
        <ele>4.5</ele>
        <time>2014-09-19T10:34:40Z</time>
      </trkpt>
      <trkpt lat="50.53793" lon="1.58355">
        <ele>3.8</ele>
        <time>2014-09-19T10:34:48Z</time>
      </trkpt>
      <trkpt lat="50.53787" lon="1.58346">
        <ele>2.4</ele>
        <time>2014-09-19T10:34:56Z</time>
      </trkpt>
      <trkpt lat="50.5378" lon="1.58339">
        <ele>4.2</ele>
        <time>2014-09-19T10:35:04Z</time>
      </trkpt>
      <trkpt lat="50.53772" lon="1.58332">
        <ele>3.7</ele>
        <time>2014-09-19T10:35:12Z</time>
      </trkpt>
      <trkpt lat="50.53765" lon="1.58326">
        <ele>2.9</ele>
        <time>2014-09-19T10:35:20Z</time>
      </trkpt>
      <trkpt lat="50.5376" lon="1.58316">
        <ele>3</ele>
        <time>2014-09-19T10:35:27Z</time>
      </trkpt>
      <trkpt lat="50.53759" lon="1.58315">
        <ele>3.3</ele>
        <time>2014-09-19T10:35:28Z</time>
      </trkpt>
      <trkpt lat="50.53745" lon="1.58303">
        <ele>2.6</ele>
        <time>2014-09-19T10:35:43Z</time>
      </trkpt>
      <trkpt lat="50.53738" lon="1.58296">
        <ele>1.6</ele>
        <time>2014-09-19T10:35:51Z</time>
      </trkpt>
      <trkpt lat="50.5373" lon="1.58291">
        <ele>3.3</ele>
        <time>2014-09-19T10:35:59Z</time>
      </trkpt>
      <trkpt lat="50.53721" lon="1.58288">
        <ele>3.1</ele>
        <time>2014-09-19T10:36:07Z</time>
      </trkpt>
      <trkpt lat="50.53713" lon="1.58288">
        <ele>3</ele>
        <time>2014-09-19T10:36:17Z</time>
      </trkpt>
      <trkpt lat="50.53706" lon="1.5828">
        <ele>4</ele>
        <time>2014-09-19T10:36:41Z</time>
      </trkpt>
      <trkpt lat="50.53705" lon="1.58279">
        <ele>3.7</ele>
        <time>2014-09-19T10:36:42Z</time>
      </trkpt>
      <trkpt lat="50.53691" lon="1.5827">
        <ele>4.4</ele>
        <time>2014-09-19T10:36:55Z</time>
      </trkpt>
      <trkpt lat="50.53682" lon="1.58267">
        <ele>5.1</ele>
        <time>2014-09-19T10:37:03Z</time>
      </trkpt>
      <trkpt lat="50.53674" lon="1.58266">
        <ele>3.5</ele>
        <time>2014-09-19T10:37:12Z</time>
      </trkpt>
      <trkpt lat="50.53666" lon="1.58272">
        <ele>3.2</ele>
        <time>2014-09-19T10:37:19Z</time>
      </trkpt>
      <trkpt lat="50.5366" lon="1.5828">
        <ele>3.6</ele>
        <time>2014-09-19T10:37:27Z</time>
      </trkpt>
      <trkpt lat="50.53654" lon="1.58292">
        <ele>2.6</ele>
        <time>2014-09-19T10:37:35Z</time>
      </trkpt>
      <trkpt lat="50.53649" lon="1.58303">
        <ele>3</ele>
        <time>2014-09-19T10:37:44Z</time>
      </trkpt>
      <trkpt lat="50.53648" lon="1.58304">
        <ele>2.9</ele>
        <time>2014-09-19T10:37:45Z</time>
      </trkpt>
      <trkpt lat="50.53639" lon="1.58325">
        <ele>4</ele>
        <time>2014-09-19T10:38:03Z</time>
      </trkpt>
      <trkpt lat="50.53635" lon="1.58337">
        <ele>7.5</ele>
        <time>2014-09-19T10:38:20Z</time>
      </trkpt>
      <trkpt lat="50.53634" lon="1.58351">
        <ele>10</ele>
        <time>2014-09-19T10:38:41Z</time>
      </trkpt>
      <trkpt lat="50.53632" lon="1.58364">
        <ele>11.3</ele>
        <time>2014-09-19T10:38:55Z</time>
      </trkpt>
      <trkpt lat="50.53632" lon="1.58365">
        <ele>11.4</ele>
        <time>2014-09-19T10:38:56Z</time>
      </trkpt>
      <trkpt lat="50.53624" lon="1.58388">
        <ele>11.8</ele>
        <time>2014-09-19T10:39:18Z</time>
      </trkpt>
      <trkpt lat="50.53619" lon="1.58398">
        <ele>12.6</ele>
        <time>2014-09-19T10:39:30Z</time>
      </trkpt>
      <trkpt lat="50.53613" lon="1.58408">
        <ele>15.4</ele>
        <time>2014-09-19T10:39:44Z</time>
      </trkpt>
      <trkpt lat="50.53607" lon="1.58418">
        <ele>13.8</ele>
        <time>2014-09-19T10:39:57Z</time>
      </trkpt>
      <trkpt lat="50.53606" lon="1.58419">
        <ele>14.6</ele>
        <time>2014-09-19T10:39:58Z</time>
      </trkpt>
      <trkpt lat="50.53598" lon="1.58441">
        <ele>17.3</ele>
        <time>2014-09-19T10:40:56Z</time>
      </trkpt>
      <trkpt lat="50.53594" lon="1.58452">
        <ele>16.6</ele>
        <time>2014-09-19T10:41:03Z</time>
      </trkpt>
      <trkpt lat="50.53593" lon="1.58453">
        <ele>16.5</ele>
        <time>2014-09-19T10:41:04Z</time>
      </trkpt>
      <trkpt lat="50.53587" lon="1.58477">
        <ele>14.4</ele>
        <time>2014-09-19T10:41:19Z</time>
      </trkpt>
      <trkpt lat="50.53584" lon="1.5849">
        <ele>13.2</ele>
        <time>2014-09-19T10:41:27Z</time>
      </trkpt>
      <trkpt lat="50.53584" lon="1.58503">
        <ele>12</ele>
        <time>2014-09-19T10:41:35Z</time>
      </trkpt>
      <trkpt lat="50.53582" lon="1.58516">
        <ele>8.9</ele>
        <time>2014-09-19T10:41:44Z</time>
      </trkpt>
      <trkpt lat="50.53578" lon="1.58528">
        <ele>9.7</ele>
        <time>2014-09-19T10:41:53Z</time>
      </trkpt>
      <trkpt lat="50.53575" lon="1.58541">
        <ele>8.2</ele>
        <time>2014-09-19T10:42:02Z</time>
      </trkpt>
      <trkpt lat="50.53573" lon="1.58554">
        <ele>7.5</ele>
        <time>2014-09-19T10:42:09Z</time>
      </trkpt>
      <trkpt lat="50.53573" lon="1.58556">
        <ele>7.2</ele>
        <time>2014-09-19T10:42:10Z</time>
      </trkpt>
      <trkpt lat="50.53567" lon="1.58579">
        <ele>8</ele>
        <time>2014-09-19T10:42:25Z</time>
      </trkpt>
      <trkpt lat="50.53563" lon="1.58591">
        <ele>7.7</ele>
        <time>2014-09-19T10:42:34Z</time>
      </trkpt>
      <trkpt lat="50.53558" lon="1.58603">
        <ele>8.4</ele>
        <time>2014-09-19T10:42:44Z</time>
      </trkpt>
      <trkpt lat="50.53552" lon="1.58613">
        <ele>9.3</ele>
        <time>2014-09-19T10:42:53Z</time>
      </trkpt>
      <trkpt lat="50.53546" lon="1.58623">
        <ele>10.2</ele>
        <time>2014-09-19T10:43:03Z</time>
      </trkpt>
      <trkpt lat="50.53538" lon="1.58628">
        <ele>11.1</ele>
        <time>2014-09-19T10:43:10Z</time>
      </trkpt>
      <trkpt lat="50.53537" lon="1.58629">
        <ele>11.1</ele>
        <time>2014-09-19T10:43:11Z</time>
      </trkpt>
      <trkpt lat="50.53524" lon="1.58621">
        <ele>11.3</ele>
        <time>2014-09-19T10:43:20Z</time>
      </trkpt>
      <trkpt lat="50.53516" lon="1.58613">
        <ele>11.8</ele>
        <time>2014-09-19T10:43:26Z</time>
      </trkpt>
      <trkpt lat="50.53509" lon="1.58607">
        <ele>10.9</ele>
        <time>2014-09-19T10:43:32Z</time>
      </trkpt>
      <trkpt lat="50.53501" lon="1.586">
        <ele>11.3</ele>
        <time>2014-09-19T10:43:38Z</time>
      </trkpt>
      <trkpt lat="50.53493" lon="1.58594">
        <ele>11.5</ele>
        <time>2014-09-19T10:43:44Z</time>
      </trkpt>
      <trkpt lat="50.53487" lon="1.58589">
        <ele>11.5</ele>
        <time>2014-09-19T10:43:49Z</time>
      </trkpt>
      <trkpt lat="50.5348" lon="1.58583">
        <ele>10.9</ele>
        <time>2014-09-19T10:43:54Z</time>
      </trkpt>
      <trkpt lat="50.53472" lon="1.58576">
        <ele>11.8</ele>
        <time>2014-09-19T10:44:00Z</time>
      </trkpt>
      <trkpt lat="50.53465" lon="1.58568">
        <ele>10.8</ele>
        <time>2014-09-19T10:44:06Z</time>
      </trkpt>
      <trkpt lat="50.53458" lon="1.58561">
        <ele>9.6</ele>
        <time>2014-09-19T10:44:12Z</time>
      </trkpt>
      <trkpt lat="50.53456" lon="1.5856">
        <ele>10</ele>
        <time>2014-09-19T10:44:13Z</time>
      </trkpt>
      <trkpt lat="50.53444" lon="1.5855">
        <ele>12</ele>
        <time>2014-09-19T10:44:22Z</time>
      </trkpt>
      <trkpt lat="50.53438" lon="1.58545">
        <ele>11.6</ele>
        <time>2014-09-19T10:44:27Z</time>
      </trkpt>
      <trkpt lat="50.5343" lon="1.58539">
        <ele>10.5</ele>
        <time>2014-09-19T10:44:33Z</time>
      </trkpt>
      <trkpt lat="50.53422" lon="1.58533">
        <ele>11</ele>
        <time>2014-09-19T10:44:39Z</time>
      </trkpt>
      <trkpt lat="50.53415" lon="1.58526">
        <ele>11.4</ele>
        <time>2014-09-19T10:44:45Z</time>
      </trkpt>
      <trkpt lat="50.53407" lon="1.5852">
        <ele>10.6</ele>
        <time>2014-09-19T10:44:51Z</time>
      </trkpt>
      <trkpt lat="50.53399" lon="1.58514">
        <ele>12.2</ele>
        <time>2014-09-19T10:44:57Z</time>
      </trkpt>
      <trkpt lat="50.53392" lon="1.58508">
        <ele>11.8</ele>
        <time>2014-09-19T10:45:03Z</time>
      </trkpt>
      <trkpt lat="50.53384" lon="1.58502">
        <ele>11.4</ele>
        <time>2014-09-19T10:45:09Z</time>
      </trkpt>
      <trkpt lat="50.53376" lon="1.58496">
        <ele>11.9</ele>
        <time>2014-09-19T10:45:15Z</time>
      </trkpt>
      <trkpt lat="50.53374" lon="1.58495">
        <ele>12.1</ele>
        <time>2014-09-19T10:45:16Z</time>
      </trkpt>
      <trkpt lat="50.53362" lon="1.58486">
        <ele>12.4</ele>
        <time>2014-09-19T10:45:25Z</time>
      </trkpt>
      <trkpt lat="50.53355" lon="1.58481">
        <ele>12.1</ele>
        <time>2014-09-19T10:45:30Z</time>
      </trkpt>
      <trkpt lat="50.53348" lon="1.58476">
        <ele>12.9</ele>
        <time>2014-09-19T10:45:35Z</time>
      </trkpt>
      <trkpt lat="50.5334" lon="1.5847">
        <ele>12.3</ele>
        <time>2014-09-19T10:45:41Z</time>
      </trkpt>
      <trkpt lat="50.53332" lon="1.58464">
        <ele>12.4</ele>
        <time>2014-09-19T10:45:47Z</time>
      </trkpt>
      <trkpt lat="50.53325" lon="1.58459">
        <ele>10.8</ele>
        <time>2014-09-19T10:45:52Z</time>
      </trkpt>
      <trkpt lat="50.53318" lon="1.58454">
        <ele>12</ele>
        <time>2014-09-19T10:45:57Z</time>
      </trkpt>
      <trkpt lat="50.53311" lon="1.58449">
        <ele>12.5</ele>
        <time>2014-09-19T10:46:02Z</time>
      </trkpt>
      <trkpt lat="50.53303" lon="1.58444">
        <ele>11.5</ele>
        <time>2014-09-19T10:46:08Z</time>
      </trkpt>
      <trkpt lat="50.53295" lon="1.58438">
        <ele>12.5</ele>
        <time>2014-09-19T10:46:14Z</time>
      </trkpt>
      <trkpt lat="50.53287" lon="1.58434">
        <ele>12.7</ele>
        <time>2014-09-19T10:46:19Z</time>
      </trkpt>
      <trkpt lat="50.53286" lon="1.58433">
        <ele>12.7</ele>
        <time>2014-09-19T10:46:20Z</time>
      </trkpt>
      <trkpt lat="50.53272" lon="1.58425">
        <ele>13.3</ele>
        <time>2014-09-19T10:46:30Z</time>
      </trkpt>
      <trkpt lat="50.53264" lon="1.58419">
        <ele>11.8</ele>
        <time>2014-09-19T10:46:36Z</time>
      </trkpt>
      <trkpt lat="50.53256" lon="1.58415">
        <ele>12.3</ele>
        <time>2014-09-19T10:46:41Z</time>
      </trkpt>
      <trkpt lat="50.53249" lon="1.5841">
        <ele>12.4</ele>
        <time>2014-09-19T10:46:46Z</time>
      </trkpt>
      <trkpt lat="50.53242" lon="1.58404">
        <ele>12.9</ele>
        <time>2014-09-19T10:46:52Z</time>
      </trkpt>
      <trkpt lat="50.53234" lon="1.58399">
        <ele>12.7</ele>
        <time>2014-09-19T10:46:58Z</time>
      </trkpt>
      <trkpt lat="50.53226" lon="1.58395">
        <ele>12.8</ele>
        <time>2014-09-19T10:47:04Z</time>
      </trkpt>
      <trkpt lat="50.53218" lon="1.5839">
        <ele>13.6</ele>
        <time>2014-09-19T10:47:10Z</time>
      </trkpt>
      <trkpt lat="50.5321" lon="1.58384">
        <ele>14.2</ele>
        <time>2014-09-19T10:47:16Z</time>
      </trkpt>
      <trkpt lat="50.53202" lon="1.5838">
        <ele>12.9</ele>
        <time>2014-09-19T10:47:22Z</time>
      </trkpt>
      <trkpt lat="50.532" lon="1.58379">
        <ele>12.9</ele>
        <time>2014-09-19T10:47:23Z</time>
      </trkpt>
      <trkpt lat="50.53187" lon="1.5837">
        <ele>13.7</ele>
        <time>2014-09-19T10:47:33Z</time>
      </trkpt>
      <trkpt lat="50.53178" lon="1.58364">
        <ele>13.8</ele>
        <time>2014-09-19T10:47:39Z</time>
      </trkpt>
      <trkpt lat="50.5317" lon="1.5836">
        <ele>13.2</ele>
        <time>2014-09-19T10:47:45Z</time>
      </trkpt>
      <trkpt lat="50.53162" lon="1.58355">
        <ele>13.6</ele>
        <time>2014-09-19T10:47:51Z</time>
      </trkpt>
      <trkpt lat="50.53155" lon="1.5835">
        <ele>13.6</ele>
        <time>2014-09-19T10:47:56Z</time>
      </trkpt>
      <trkpt lat="50.53147" lon="1.58345">
        <ele>14</ele>
        <time>2014-09-19T10:48:02Z</time>
      </trkpt>
      <trkpt lat="50.53139" lon="1.58338">
        <ele>14.2</ele>
        <time>2014-09-19T10:48:08Z</time>
      </trkpt>
      <trkpt lat="50.53132" lon="1.58332">
        <ele>11.1</ele>
        <time>2014-09-19T10:48:14Z</time>
      </trkpt>
      <trkpt lat="50.53125" lon="1.58325">
        <ele>12.8</ele>
        <time>2014-09-19T10:48:19Z</time>
      </trkpt>
      <trkpt lat="50.53118" lon="1.5832">
        <ele>12.8</ele>
        <time>2014-09-19T10:48:24Z</time>
      </trkpt>
      <trkpt lat="50.53117" lon="1.58319">
        <ele>13</ele>
        <time>2014-09-19T10:48:25Z</time>
      </trkpt>
      <trkpt lat="50.53102" lon="1.5831">
        <ele>13</ele>
        <time>2014-09-19T10:48:36Z</time>
      </trkpt>
      <trkpt lat="50.53094" lon="1.58305">
        <ele>11.9</ele>
        <time>2014-09-19T10:48:42Z</time>
      </trkpt>
      <trkpt lat="50.53087" lon="1.58301">
        <ele>14.1</ele>
        <time>2014-09-19T10:48:48Z</time>
      </trkpt>
      <trkpt lat="50.53079" lon="1.58296">
        <ele>14.8</ele>
        <time>2014-09-19T10:48:54Z</time>
      </trkpt>
      <trkpt lat="50.5307" lon="1.58293">
        <ele>14.8</ele>
        <time>2014-09-19T10:49:00Z</time>
      </trkpt>
      <trkpt lat="50.53062" lon="1.58289">
        <ele>13.8</ele>
        <time>2014-09-19T10:49:06Z</time>
      </trkpt>
      <trkpt lat="50.53054" lon="1.58286">
        <ele>14.1</ele>
        <time>2014-09-19T10:49:11Z</time>
      </trkpt>
      <trkpt lat="50.53047" lon="1.58283">
        <ele>14.2</ele>
        <time>2014-09-19T10:49:16Z</time>
      </trkpt>
      <trkpt lat="50.53039" lon="1.58281">
        <ele>14.7</ele>
        <time>2014-09-19T10:49:21Z</time>
      </trkpt>
      <trkpt lat="50.53031" lon="1.58278">
        <ele>14.2</ele>
        <time>2014-09-19T10:49:27Z</time>
      </trkpt>
      <trkpt lat="50.53029" lon="1.58277">
        <ele>14.1</ele>
        <time>2014-09-19T10:49:28Z</time>
      </trkpt>
      <trkpt lat="50.53014" lon="1.58272">
        <ele>13.6</ele>
        <time>2014-09-19T10:49:39Z</time>
      </trkpt>
      <trkpt lat="50.53005" lon="1.58269">
        <ele>14</ele>
        <time>2014-09-19T10:49:45Z</time>
      </trkpt>
      <trkpt lat="50.52996" lon="1.58266">
        <ele>14.6</ele>
        <time>2014-09-19T10:49:51Z</time>
      </trkpt>
      <trkpt lat="50.52988" lon="1.58262">
        <ele>15</ele>
        <time>2014-09-19T10:49:57Z</time>
      </trkpt>
      <trkpt lat="50.52979" lon="1.5826">
        <ele>13.9</ele>
        <time>2014-09-19T10:50:03Z</time>
      </trkpt>
      <trkpt lat="50.52971" lon="1.58256">
        <ele>14.2</ele>
        <time>2014-09-19T10:50:09Z</time>
      </trkpt>
      <trkpt lat="50.52964" lon="1.58252">
        <ele>13.5</ele>
        <time>2014-09-19T10:50:14Z</time>
      </trkpt>
      <trkpt lat="50.52955" lon="1.58248">
        <ele>14</ele>
        <time>2014-09-19T10:50:20Z</time>
      </trkpt>
      <trkpt lat="50.52947" lon="1.58243">
        <ele>13.7</ele>
        <time>2014-09-19T10:50:26Z</time>
      </trkpt>
      <trkpt lat="50.52939" lon="1.5824">
        <ele>12.5</ele>
        <time>2014-09-19T10:50:32Z</time>
      </trkpt>
      <trkpt lat="50.52937" lon="1.58239">
        <ele>12.5</ele>
        <time>2014-09-19T10:50:33Z</time>
      </trkpt>
      <trkpt lat="50.52924" lon="1.58229">
        <ele>13.6</ele>
        <time>2014-09-19T10:50:43Z</time>
      </trkpt>
      <trkpt lat="50.52917" lon="1.58223">
        <ele>14.2</ele>
        <time>2014-09-19T10:50:49Z</time>
      </trkpt>
      <trkpt lat="50.5291" lon="1.58217">
        <ele>14.2</ele>
        <time>2014-09-19T10:50:55Z</time>
      </trkpt>
      <trkpt lat="50.52902" lon="1.58212">
        <ele>13.4</ele>
        <time>2014-09-19T10:51:02Z</time>
      </trkpt>
      <trkpt lat="50.52896" lon="1.58205">
        <ele>14.2</ele>
        <time>2014-09-19T10:51:07Z</time>
      </trkpt>
      <trkpt lat="50.52888" lon="1.58199">
        <ele>14.8</ele>
        <time>2014-09-19T10:51:14Z</time>
      </trkpt>
      <trkpt lat="50.52881" lon="1.58193">
        <ele>14</ele>
        <time>2014-09-19T10:51:19Z</time>
      </trkpt>
      <trkpt lat="50.52874" lon="1.58186">
        <ele>13.3</ele>
        <time>2014-09-19T10:51:25Z</time>
      </trkpt>
      <trkpt lat="50.52868" lon="1.58178">
        <ele>13.3</ele>
        <time>2014-09-19T10:51:31Z</time>
      </trkpt>
      <trkpt lat="50.5286" lon="1.5817">
        <ele>13.2</ele>
        <time>2014-09-19T10:51:37Z</time>
      </trkpt>
      <trkpt lat="50.52859" lon="1.58169">
        <ele>12.9</ele>
        <time>2014-09-19T10:51:38Z</time>
      </trkpt>
      <trkpt lat="50.52846" lon="1.58157">
        <ele>12.2</ele>
        <time>2014-09-19T10:51:49Z</time>
      </trkpt>
      <trkpt lat="50.5284" lon="1.58148">
        <ele>12.1</ele>
        <time>2014-09-19T10:51:56Z</time>
      </trkpt>
      <trkpt lat="50.52834" lon="1.58141">
        <ele>12.8</ele>
        <time>2014-09-19T10:52:01Z</time>
      </trkpt>
      <trkpt lat="50.52827" lon="1.58135">
        <ele>11.2</ele>
        <time>2014-09-19T10:52:07Z</time>
      </trkpt>
      <trkpt lat="50.5282" lon="1.58127">
        <ele>10</ele>
        <time>2014-09-19T10:52:13Z</time>
      </trkpt>
      <trkpt lat="50.52812" lon="1.58122">
        <ele>9.7</ele>
        <time>2014-09-19T10:52:19Z</time>
      </trkpt>
      <trkpt lat="50.52804" lon="1.58116">
        <ele>9</ele>
        <time>2014-09-19T10:52:25Z</time>
      </trkpt>
      <trkpt lat="50.52798" lon="1.58108">
        <ele>9.5</ele>
        <time>2014-09-19T10:52:31Z</time>
      </trkpt>
      <trkpt lat="50.52791" lon="1.58101">
        <ele>9.3</ele>
        <time>2014-09-19T10:52:37Z</time>
      </trkpt>
      <trkpt lat="50.52785" lon="1.58091">
        <ele>8.5</ele>
        <time>2014-09-19T10:52:43Z</time>
      </trkpt>
      <trkpt lat="50.52784" lon="1.5809">
        <ele>8.3</ele>
        <time>2014-09-19T10:52:44Z</time>
      </trkpt>
      <trkpt lat="50.5277" lon="1.58083">
        <ele>10.3</ele>
        <time>2014-09-19T10:52:55Z</time>
      </trkpt>
      <trkpt lat="50.52761" lon="1.58081">
        <ele>9.5</ele>
        <time>2014-09-19T10:53:02Z</time>
      </trkpt>
      <trkpt lat="50.52753" lon="1.58077">
        <ele>9.3</ele>
        <time>2014-09-19T10:53:09Z</time>
      </trkpt>
      <trkpt lat="50.52746" lon="1.58071">
        <ele>9</ele>
        <time>2014-09-19T10:53:15Z</time>
      </trkpt>
      <trkpt lat="50.52738" lon="1.58068">
        <ele>8.2</ele>
        <time>2014-09-19T10:53:21Z</time>
      </trkpt>
      <trkpt lat="50.5273" lon="1.58066">
        <ele>7.9</ele>
        <time>2014-09-19T10:53:27Z</time>
      </trkpt>
      <trkpt lat="50.52721" lon="1.58063">
        <ele>9.2</ele>
        <time>2014-09-19T10:53:33Z</time>
      </trkpt>
      <trkpt lat="50.52713" lon="1.58061">
        <ele>9.7</ele>
        <time>2014-09-19T10:53:39Z</time>
      </trkpt>
      <trkpt lat="50.52705" lon="1.58058">
        <ele>8.8</ele>
        <time>2014-09-19T10:53:45Z</time>
      </trkpt>
      <trkpt lat="50.52704" lon="1.58058">
        <ele>8.3</ele>
        <time>2014-09-19T10:53:46Z</time>
      </trkpt>
      <trkpt lat="50.52689" lon="1.58054">
        <ele>7</ele>
        <time>2014-09-19T10:53:57Z</time>
      </trkpt>
      <trkpt lat="50.52681" lon="1.58052">
        <ele>5.6</ele>
        <time>2014-09-19T10:54:03Z</time>
      </trkpt>
      <trkpt lat="50.52673" lon="1.58048">
        <ele>7.8</ele>
        <time>2014-09-19T10:54:09Z</time>
      </trkpt>
      <trkpt lat="50.52664" lon="1.58044">
        <ele>7.8</ele>
        <time>2014-09-19T10:54:16Z</time>
      </trkpt>
      <trkpt lat="50.52657" lon="1.5804">
        <ele>8.3</ele>
        <time>2014-09-19T10:54:22Z</time>
      </trkpt>
      <trkpt lat="50.52649" lon="1.58039">
        <ele>8.8</ele>
        <time>2014-09-19T10:54:28Z</time>
      </trkpt>
      <trkpt lat="50.52641" lon="1.5804">
        <ele>8.2</ele>
        <time>2014-09-19T10:54:33Z</time>
      </trkpt>
      <trkpt lat="50.52633" lon="1.58044">
        <ele>7.4</ele>
        <time>2014-09-19T10:54:39Z</time>
      </trkpt>
      <trkpt lat="50.52624" lon="1.58039">
        <ele>5.9</ele>
        <time>2014-09-19T10:54:49Z</time>
      </trkpt>
      <trkpt lat="50.52624" lon="1.58037">
        <ele>5.9</ele>
        <time>2014-09-19T10:54:50Z</time>
      </trkpt>
      <trkpt lat="50.52612" lon="1.58025">
        <ele>5.7</ele>
        <time>2014-09-19T10:55:02Z</time>
      </trkpt>
      <trkpt lat="50.52604" lon="1.58022">
        <ele>5.7</ele>
        <time>2014-09-19T10:55:08Z</time>
      </trkpt>
      <trkpt lat="50.52595" lon="1.58019">
        <ele>5.9</ele>
        <time>2014-09-19T10:55:14Z</time>
      </trkpt>
      <trkpt lat="50.52587" lon="1.58017">
        <ele>5.1</ele>
        <time>2014-09-19T10:55:20Z</time>
      </trkpt>
      <trkpt lat="50.52578" lon="1.58014">
        <ele>5.8</ele>
        <time>2014-09-19T10:55:26Z</time>
      </trkpt>
      <trkpt lat="50.5257" lon="1.58011">
        <ele>5.6</ele>
        <time>2014-09-19T10:55:32Z</time>
      </trkpt>
      <trkpt lat="50.52561" lon="1.58008">
        <ele>5.7</ele>
        <time>2014-09-19T10:55:38Z</time>
      </trkpt>
      <trkpt lat="50.52553" lon="1.58006">
        <ele>6</ele>
        <time>2014-09-19T10:55:44Z</time>
      </trkpt>
      <trkpt lat="50.52545" lon="1.58002">
        <ele>4.9</ele>
        <time>2014-09-19T10:55:50Z</time>
      </trkpt>
      <trkpt lat="50.52543" lon="1.58001">
        <ele>5</ele>
        <time>2014-09-19T10:55:51Z</time>
      </trkpt>
      <trkpt lat="50.52529" lon="1.57993">
        <ele>5.3</ele>
        <time>2014-09-19T10:56:01Z</time>
      </trkpt>
      <trkpt lat="50.52521" lon="1.5799">
        <ele>5.6</ele>
        <time>2014-09-19T10:56:07Z</time>
      </trkpt>
      <trkpt lat="50.52513" lon="1.57987">
        <ele>5.3</ele>
        <time>2014-09-19T10:56:13Z</time>
      </trkpt>
      <trkpt lat="50.52505" lon="1.57984">
        <ele>4.8</ele>
        <time>2014-09-19T10:56:18Z</time>
      </trkpt>
      <trkpt lat="50.52497" lon="1.57981">
        <ele>2.1</ele>
        <time>2014-09-19T10:56:24Z</time>
      </trkpt>
      <trkpt lat="50.52489" lon="1.57978">
        <ele>5.2</ele>
        <time>2014-09-19T10:56:29Z</time>
      </trkpt>
      <trkpt lat="50.52481" lon="1.57974">
        <ele>6.2</ele>
        <time>2014-09-19T10:56:35Z</time>
      </trkpt>
      <trkpt lat="50.52473" lon="1.57971">
        <ele>4.4</ele>
        <time>2014-09-19T10:56:41Z</time>
      </trkpt>
      <trkpt lat="50.52465" lon="1.57967">
        <ele>4.9</ele>
        <time>2014-09-19T10:56:47Z</time>
      </trkpt>
      <trkpt lat="50.52458" lon="1.57964">
        <ele>5.4</ele>
        <time>2014-09-19T10:56:53Z</time>
      </trkpt>
      <trkpt lat="50.52456" lon="1.57963">
        <ele>5.5</ele>
        <time>2014-09-19T10:56:54Z</time>
      </trkpt>
      <trkpt lat="50.52441" lon="1.57957">
        <ele>4.7</ele>
        <time>2014-09-19T10:57:05Z</time>
      </trkpt>
      <trkpt lat="50.52434" lon="1.57955">
        <ele>4.5</ele>
        <time>2014-09-19T10:57:10Z</time>
      </trkpt>
      <trkpt lat="50.52425" lon="1.57952">
        <ele>4.8</ele>
        <time>2014-09-19T10:57:16Z</time>
      </trkpt>
      <trkpt lat="50.52417" lon="1.57948">
        <ele>5.6</ele>
        <time>2014-09-19T10:57:22Z</time>
      </trkpt>
      <trkpt lat="50.52409" lon="1.57946">
        <ele>4.7</ele>
        <time>2014-09-19T10:57:28Z</time>
      </trkpt>
      <trkpt lat="50.52401" lon="1.57943">
        <ele>6</ele>
        <time>2014-09-19T10:57:34Z</time>
      </trkpt>
      <trkpt lat="50.52393" lon="1.5794">
        <ele>4.2</ele>
        <time>2014-09-19T10:57:40Z</time>
      </trkpt>
      <trkpt lat="50.52384" lon="1.57936">
        <ele>5.3</ele>
        <time>2014-09-19T10:57:46Z</time>
      </trkpt>
      <trkpt lat="50.52376" lon="1.57932">
        <ele>5.1</ele>
        <time>2014-09-19T10:57:52Z</time>
      </trkpt>
      <trkpt lat="50.52368" lon="1.57929">
        <ele>5.8</ele>
        <time>2014-09-19T10:57:58Z</time>
      </trkpt>
      <trkpt lat="50.52367" lon="1.57929">
        <ele>6.1</ele>
        <time>2014-09-19T10:57:59Z</time>
      </trkpt>
      <trkpt lat="50.52352" lon="1.57923">
        <ele>4.8</ele>
        <time>2014-09-19T10:58:10Z</time>
      </trkpt>
      <trkpt lat="50.52344" lon="1.5792">
        <ele>5.8</ele>
        <time>2014-09-19T10:58:16Z</time>
      </trkpt>
      <trkpt lat="50.52336" lon="1.57916">
        <ele>5.3</ele>
        <time>2014-09-19T10:58:22Z</time>
      </trkpt>
      <trkpt lat="50.52328" lon="1.57913">
        <ele>5.8</ele>
        <time>2014-09-19T10:58:28Z</time>
      </trkpt>
      <trkpt lat="50.5232" lon="1.5791">
        <ele>5.6</ele>
        <time>2014-09-19T10:58:34Z</time>
      </trkpt>
      <trkpt lat="50.52312" lon="1.57907">
        <ele>5.2</ele>
        <time>2014-09-19T10:58:40Z</time>
      </trkpt>
      <trkpt lat="50.52303" lon="1.57905">
        <ele>5.7</ele>
        <time>2014-09-19T10:58:46Z</time>
      </trkpt>
      <trkpt lat="50.52295" lon="1.57901">
        <ele>4.3</ele>
        <time>2014-09-19T10:58:52Z</time>
      </trkpt>
      <trkpt lat="50.52287" lon="1.57899">
        <ele>5.4</ele>
        <time>2014-09-19T10:58:58Z</time>
      </trkpt>
      <trkpt lat="50.52279" lon="1.57895">
        <ele>5.6</ele>
        <time>2014-09-19T10:59:04Z</time>
      </trkpt>
      <trkpt lat="50.52278" lon="1.57895">
        <ele>5.3</ele>
        <time>2014-09-19T10:59:05Z</time>
      </trkpt>
      <trkpt lat="50.52262" lon="1.57889">
        <ele>6.2</ele>
        <time>2014-09-19T10:59:16Z</time>
      </trkpt>
      <trkpt lat="50.52255" lon="1.57887">
        <ele>6.8</ele>
        <time>2014-09-19T10:59:21Z</time>
      </trkpt>
      <trkpt lat="50.52247" lon="1.57884">
        <ele>4.9</ele>
        <time>2014-09-19T10:59:27Z</time>
      </trkpt>
      <trkpt lat="50.52238" lon="1.57881">
        <ele>4.3</ele>
        <time>2014-09-19T10:59:33Z</time>
      </trkpt>
      <trkpt lat="50.5223" lon="1.5788">
        <ele>3.9</ele>
        <time>2014-09-19T10:59:39Z</time>
      </trkpt>
      <trkpt lat="50.52222" lon="1.57879">
        <ele>5.2</ele>
        <time>2014-09-19T10:59:45Z</time>
      </trkpt>
      <trkpt lat="50.52214" lon="1.57877">
        <ele>5.5</ele>
        <time>2014-09-19T10:59:51Z</time>
      </trkpt>
      <trkpt lat="50.52206" lon="1.57876">
        <ele>4.1</ele>
        <time>2014-09-19T10:59:57Z</time>
      </trkpt>
      <trkpt lat="50.52197" lon="1.57875">
        <ele>4.8</ele>
        <time>2014-09-19T11:00:03Z</time>
      </trkpt>
      <trkpt lat="50.52189" lon="1.57873">
        <ele>4.7</ele>
        <time>2014-09-19T11:00:09Z</time>
      </trkpt>
      <trkpt lat="50.52188" lon="1.57873">
        <ele>5.1</ele>
        <time>2014-09-19T11:00:10Z</time>
      </trkpt>
      <trkpt lat="50.52173" lon="1.5787">
        <ele>5.5</ele>
        <time>2014-09-19T11:00:22Z</time>
      </trkpt>
      <trkpt lat="50.52165" lon="1.57868">
        <ele>5.3</ele>
        <time>2014-09-19T11:00:28Z</time>
      </trkpt>
      <trkpt lat="50.52157" lon="1.57867">
        <ele>4.8</ele>
        <time>2014-09-19T11:00:34Z</time>
      </trkpt>
      <trkpt lat="50.52149" lon="1.57865">
        <ele>5</ele>
        <time>2014-09-19T11:00:40Z</time>
      </trkpt>
      <trkpt lat="50.5214" lon="1.57864">
        <ele>5.3</ele>
        <time>2014-09-19T11:00:46Z</time>
      </trkpt>
      <trkpt lat="50.52131" lon="1.57863">
        <ele>6</ele>
        <time>2014-09-19T11:00:52Z</time>
      </trkpt>
      <trkpt lat="50.52123" lon="1.57861">
        <ele>6.2</ele>
        <time>2014-09-19T11:00:58Z</time>
      </trkpt>
      <trkpt lat="50.52114" lon="1.5786">
        <ele>6.4</ele>
        <time>2014-09-19T11:01:04Z</time>
      </trkpt>
      <trkpt lat="50.52105" lon="1.57858">
        <ele>5.6</ele>
        <time>2014-09-19T11:01:10Z</time>
      </trkpt>
      <trkpt lat="50.52104" lon="1.57858">
        <ele>6</ele>
        <time>2014-09-19T11:01:11Z</time>
      </trkpt>
      <trkpt lat="50.52088" lon="1.57855">
        <ele>5.3</ele>
        <time>2014-09-19T11:01:22Z</time>
      </trkpt>
      <trkpt lat="50.52079" lon="1.57853">
        <ele>4.7</ele>
        <time>2014-09-19T11:01:28Z</time>
      </trkpt>
      <trkpt lat="50.5207" lon="1.57851">
        <ele>5.4</ele>
        <time>2014-09-19T11:01:34Z</time>
      </trkpt>
      <trkpt lat="50.52061" lon="1.5785">
        <ele>5.5</ele>
        <time>2014-09-19T11:01:40Z</time>
      </trkpt>
      <trkpt lat="50.52053" lon="1.57848">
        <ele>6.2</ele>
        <time>2014-09-19T11:01:46Z</time>
      </trkpt>
      <trkpt lat="50.52045" lon="1.57846">
        <ele>4.3</ele>
        <time>2014-09-19T11:01:52Z</time>
      </trkpt>
      <trkpt lat="50.52036" lon="1.57846">
        <ele>5.7</ele>
        <time>2014-09-19T11:01:58Z</time>
      </trkpt>
      <trkpt lat="50.52027" lon="1.57845">
        <ele>5.6</ele>
        <time>2014-09-19T11:02:04Z</time>
      </trkpt>
      <trkpt lat="50.52019" lon="1.57844">
        <ele>5.6</ele>
        <time>2014-09-19T11:02:10Z</time>
      </trkpt>
      <trkpt lat="50.52011" lon="1.57843">
        <ele>6.4</ele>
        <time>2014-09-19T11:02:16Z</time>
      </trkpt>
      <trkpt lat="50.52009" lon="1.57843">
        <ele>6.5</ele>
        <time>2014-09-19T11:02:17Z</time>
      </trkpt>
      <trkpt lat="50.51995" lon="1.57842">
        <ele>5.9</ele>
        <time>2014-09-19T11:02:26Z</time>
      </trkpt>
      <trkpt lat="50.51986" lon="1.5784">
        <ele>6.5</ele>
        <time>2014-09-19T11:02:32Z</time>
      </trkpt>
      <trkpt lat="50.51978" lon="1.57839">
        <ele>5</ele>
        <time>2014-09-19T11:02:38Z</time>
      </trkpt>
      <trkpt lat="50.51969" lon="1.57837">
        <ele>5.9</ele>
        <time>2014-09-19T11:02:44Z</time>
      </trkpt>
      <trkpt lat="50.51961" lon="1.57835">
        <ele>6.3</ele>
        <time>2014-09-19T11:02:49Z</time>
      </trkpt>
      <trkpt lat="50.51954" lon="1.57834">
        <ele>2.4</ele>
        <time>2014-09-19T11:02:54Z</time>
      </trkpt>
      <trkpt lat="50.51946" lon="1.57833">
        <ele>5.1</ele>
        <time>2014-09-19T11:02:59Z</time>
      </trkpt>
      <trkpt lat="50.51939" lon="1.57832">
        <ele>4.8</ele>
        <time>2014-09-19T11:03:04Z</time>
      </trkpt>
      <trkpt lat="50.5193" lon="1.5783">
        <ele>4.6</ele>
        <time>2014-09-19T11:03:10Z</time>
      </trkpt>
      <trkpt lat="50.51922" lon="1.57829">
        <ele>5.6</ele>
        <time>2014-09-19T11:03:16Z</time>
      </trkpt>
      <trkpt lat="50.51914" lon="1.57826">
        <ele>6.5</ele>
        <time>2014-09-19T11:03:22Z</time>
      </trkpt>
      <trkpt lat="50.51912" lon="1.57825">
        <ele>6.4</ele>
        <time>2014-09-19T11:03:23Z</time>
      </trkpt>
      <trkpt lat="50.51896" lon="1.57822">
        <ele>4.2</ele>
        <time>2014-09-19T11:03:34Z</time>
      </trkpt>
      <trkpt lat="50.51888" lon="1.57821">
        <ele>5.5</ele>
        <time>2014-09-19T11:03:40Z</time>
      </trkpt>
      <trkpt lat="50.51879" lon="1.5782">
        <ele>5.3</ele>
        <time>2014-09-19T11:03:46Z</time>
      </trkpt>
      <trkpt lat="50.51871" lon="1.57819">
        <ele>6</ele>
        <time>2014-09-19T11:03:52Z</time>
      </trkpt>
      <trkpt lat="50.51863" lon="1.57817">
        <ele>5.1</ele>
        <time>2014-09-19T11:03:57Z</time>
      </trkpt>
      <trkpt lat="50.51855" lon="1.57813">
        <ele>5</ele>
        <time>2014-09-19T11:04:03Z</time>
      </trkpt>
      <trkpt lat="50.51847" lon="1.57811">
        <ele>5.1</ele>
        <time>2014-09-19T11:04:09Z</time>
      </trkpt>
      <trkpt lat="50.51839" lon="1.5781">
        <ele>4.5</ele>
        <time>2014-09-19T11:04:15Z</time>
      </trkpt>
      <trkpt lat="50.5183" lon="1.57809">
        <ele>5.4</ele>
        <time>2014-09-19T11:04:21Z</time>
      </trkpt>
      <trkpt lat="50.51822" lon="1.57809">
        <ele>4.5</ele>
        <time>2014-09-19T11:04:26Z</time>
      </trkpt>
      <trkpt lat="50.51821" lon="1.57809">
        <ele>4.1</ele>
        <time>2014-09-19T11:04:27Z</time>
      </trkpt>
      <trkpt lat="50.51805" lon="1.57807">
        <ele>6</ele>
        <time>2014-09-19T11:04:38Z</time>
      </trkpt>
      <trkpt lat="50.51797" lon="1.57806">
        <ele>5.9</ele>
        <time>2014-09-19T11:04:44Z</time>
      </trkpt>
      <trkpt lat="50.51788" lon="1.57805">
        <ele>4.6</ele>
        <time>2014-09-19T11:04:50Z</time>
      </trkpt>
      <trkpt lat="50.5178" lon="1.57803">
        <ele>4.7</ele>
        <time>2014-09-19T11:04:56Z</time>
      </trkpt>
      <trkpt lat="50.51772" lon="1.57802">
        <ele>5</ele>
        <time>2014-09-19T11:05:02Z</time>
      </trkpt>
      <trkpt lat="50.51764" lon="1.57801">
        <ele>4.9</ele>
        <time>2014-09-19T11:05:08Z</time>
      </trkpt>
      <trkpt lat="50.51755" lon="1.57799">
        <ele>4.5</ele>
        <time>2014-09-19T11:05:14Z</time>
      </trkpt>
      <trkpt lat="50.51747" lon="1.57797">
        <ele>4.2</ele>
        <time>2014-09-19T11:05:20Z</time>
      </trkpt>
      <trkpt lat="50.51739" lon="1.57796">
        <ele>4.9</ele>
        <time>2014-09-19T11:05:26Z</time>
      </trkpt>
      <trkpt lat="50.5173" lon="1.57796">
        <ele>4</ele>
        <time>2014-09-19T11:05:32Z</time>
      </trkpt>
      <trkpt lat="50.51729" lon="1.57796">
        <ele>4.1</ele>
        <time>2014-09-19T11:05:33Z</time>
      </trkpt>
      <trkpt lat="50.51714" lon="1.57793">
        <ele>4.7</ele>
        <time>2014-09-19T11:05:44Z</time>
      </trkpt>
      <trkpt lat="50.51707" lon="1.578">
        <ele>7.4</ele>
        <time>2014-09-19T11:06:02Z</time>
      </trkpt>
      <trkpt lat="50.51698" lon="1.57801">
        <ele>7.5</ele>
        <time>2014-09-19T11:06:10Z</time>
      </trkpt>
      <trkpt lat="50.51689" lon="1.57801">
        <ele>7.8</ele>
        <time>2014-09-19T11:06:18Z</time>
      </trkpt>
      <trkpt lat="50.51681" lon="1.57802">
        <ele>7.3</ele>
        <time>2014-09-19T11:06:25Z</time>
      </trkpt>
      <trkpt lat="50.51672" lon="1.57802">
        <ele>8.4</ele>
        <time>2014-09-19T11:06:32Z</time>
      </trkpt>
      <trkpt lat="50.51664" lon="1.57801">
        <ele>7.9</ele>
        <time>2014-09-19T11:06:39Z</time>
      </trkpt>
      <trkpt lat="50.51662" lon="1.57801">
        <ele>8.1</ele>
        <time>2014-09-19T11:06:40Z</time>
      </trkpt>
      <trkpt lat="50.51647" lon="1.57805">
        <ele>5.3</ele>
        <time>2014-09-19T11:06:54Z</time>
      </trkpt>
      <trkpt lat="50.51644" lon="1.57817">
        <ele>7.1</ele>
        <time>2014-09-19T11:07:01Z</time>
      </trkpt>
      <trkpt lat="50.51641" lon="1.5783">
        <ele>7.5</ele>
        <time>2014-09-19T11:07:10Z</time>
      </trkpt>
      <trkpt lat="50.5164" lon="1.57837">
        <ele>7.2</ele>
        <time>2014-09-19T11:07:15Z</time>
      </trkpt>
      <trkpt lat="50.5164" lon="1.57837">
        <ele>7.2</ele>
        <time>2014-09-19T11:07:15Z</time>
      </trkpt>
    </trkseg>
  </trk>
</gpx>